<?xml version="1.0" encoding="UTF-8" standalone="no" ?>
<gpx xmlns="http://www.topografix.com/GPX/1/1" xmlns:xsi="http://www.w3.org/2001/XMLSchema-instance" xsi:schemaLocation="http://www.topografix.com/GPX/1/1 http://www.topografix.com/GPX/1/1/gpx.xsd" version="1.1" creator="VisuGPX - https://www.visugpx.com">
  <metadata>
    <name>En découdre Dentelles 170119</name>
  </metadata>
  <trk>
    <name><![CDATA[En découdre Dentelles 170119_1]]></name>
    <trkseg>
      <trkpt lat="44.16318" lon="5.00416">
        <ele>244.5</ele>
      </trkpt>
      <trkpt lat="44.16318" lon="5.00416">
        <ele>244.5</ele>
      </trkpt>
      <trkpt lat="44.16316" lon="5.00413">
        <ele>244.8</ele>
        <time>2019-01-17T08:37:20Z</time>
      </trkpt>
      <trkpt lat="44.16316" lon="5.00413">
        <ele>244.8</ele>
        <time>2019-01-17T08:37:20Z</time>
      </trkpt>
      <trkpt lat="44.16293" lon="5.00424">
        <ele>249.3</ele>
        <time>2019-01-17T08:37:57Z</time>
      </trkpt>
      <trkpt lat="44.16285" lon="5.00428">
        <ele>250.8</ele>
        <time>2019-01-17T08:38:06Z</time>
      </trkpt>
      <trkpt lat="44.16274" lon="5.00436">
        <ele>252.8</ele>
        <time>2019-01-17T08:38:20Z</time>
      </trkpt>
      <trkpt lat="44.16266" lon="5.00445">
        <ele>254.2</ele>
        <time>2019-01-17T08:38:29Z</time>
      </trkpt>
      <trkpt lat="44.16257" lon="5.00456">
        <ele>255.7</ele>
        <time>2019-01-17T08:38:39Z</time>
      </trkpt>
      <trkpt lat="44.16248" lon="5.00465">
        <ele>256.7</ele>
        <time>2019-01-17T08:38:50Z</time>
      </trkpt>
      <trkpt lat="44.1624" lon="5.00473">
        <ele>257.3</ele>
        <time>2019-01-17T08:39:00Z</time>
      </trkpt>
      <trkpt lat="44.1623" lon="5.00478">
        <ele>257.7</ele>
        <time>2019-01-17T08:39:15Z</time>
      </trkpt>
      <trkpt lat="44.16218" lon="5.00481">
        <ele>258.2</ele>
        <time>2019-01-17T08:39:28Z</time>
      </trkpt>
      <trkpt lat="44.16206" lon="5.00475">
        <ele>259.1</ele>
        <time>2019-01-17T08:39:40Z</time>
      </trkpt>
      <trkpt lat="44.16193" lon="5.00467">
        <ele>260.5</ele>
        <time>2019-01-17T08:39:53Z</time>
      </trkpt>
      <trkpt lat="44.16186" lon="5.00458">
        <ele>261.9</ele>
        <time>2019-01-17T08:40:01Z</time>
      </trkpt>
      <trkpt lat="44.16176" lon="5.00444">
        <ele>264.4</ele>
        <time>2019-01-17T08:40:17Z</time>
      </trkpt>
      <trkpt lat="44.16167" lon="5.00434">
        <ele>266.7</ele>
        <time>2019-01-17T08:40:29Z</time>
      </trkpt>
      <trkpt lat="44.16157" lon="5.00429">
        <ele>267.6</ele>
        <time>2019-01-17T08:40:42Z</time>
      </trkpt>
      <trkpt lat="44.16144" lon="5.00421">
        <ele>268.8</ele>
        <time>2019-01-17T08:41:01Z</time>
      </trkpt>
      <trkpt lat="44.16115" lon="5.00394">
        <ele>274.7</ele>
        <time>2019-01-17T08:41:52Z</time>
      </trkpt>
      <trkpt lat="44.16104" lon="5.00383">
        <ele>276.6</ele>
        <time>2019-01-17T08:42:05Z</time>
      </trkpt>
      <trkpt lat="44.16089" lon="5.00368">
        <ele>278.6</ele>
        <time>2019-01-17T08:42:27Z</time>
      </trkpt>
      <trkpt lat="44.1608" lon="5.00354">
        <ele>280.9</ele>
        <time>2019-01-17T08:42:37Z</time>
      </trkpt>
      <trkpt lat="44.16072" lon="5.00343">
        <ele>283.3</ele>
        <time>2019-01-17T08:42:47Z</time>
      </trkpt>
      <trkpt lat="44.16062" lon="5.00331">
        <ele>285.5</ele>
        <time>2019-01-17T08:43:03Z</time>
      </trkpt>
      <trkpt lat="44.16054" lon="5.00324">
        <ele>286.4</ele>
        <time>2019-01-17T08:43:16Z</time>
      </trkpt>
      <trkpt lat="44.1604" lon="5.00317">
        <ele>287.3</ele>
        <time>2019-01-17T08:43:36Z</time>
      </trkpt>
      <trkpt lat="44.16028" lon="5.0032">
        <ele>287.6</ele>
        <time>2019-01-17T08:43:50Z</time>
      </trkpt>
      <trkpt lat="44.16024" lon="5.00331">
        <ele>287.6</ele>
        <time>2019-01-17T08:44:04Z</time>
      </trkpt>
      <trkpt lat="44.16015" lon="5.0034">
        <ele>288</ele>
        <time>2019-01-17T08:44:21Z</time>
      </trkpt>
      <trkpt lat="44.16004" lon="5.00346">
        <ele>288.8</ele>
        <time>2019-01-17T08:44:34Z</time>
      </trkpt>
      <trkpt lat="44.15994" lon="5.00353">
        <ele>289.7</ele>
        <time>2019-01-17T08:44:48Z</time>
      </trkpt>
      <trkpt lat="44.15986" lon="5.00364">
        <ele>290.6</ele>
        <time>2019-01-17T08:45:01Z</time>
      </trkpt>
      <trkpt lat="44.15982" lon="5.00377">
        <ele>291.4</ele>
        <time>2019-01-17T08:45:13Z</time>
      </trkpt>
      <trkpt lat="44.15977" lon="5.00391">
        <ele>292.4</ele>
        <time>2019-01-17T08:45:26Z</time>
      </trkpt>
      <trkpt lat="44.15971" lon="5.00405">
        <ele>293.7</ele>
        <time>2019-01-17T08:45:41Z</time>
      </trkpt>
      <trkpt lat="44.15964" lon="5.00417">
        <ele>295.2</ele>
        <time>2019-01-17T08:45:53Z</time>
      </trkpt>
      <trkpt lat="44.15956" lon="5.0043">
        <ele>297.2</ele>
        <time>2019-01-17T08:46:04Z</time>
      </trkpt>
      <trkpt lat="44.15948" lon="5.00444">
        <ele>299.5</ele>
        <time>2019-01-17T08:46:20Z</time>
      </trkpt>
      <trkpt lat="44.15942" lon="5.00458">
        <ele>301.6</ele>
        <time>2019-01-17T08:46:38Z</time>
      </trkpt>
      <trkpt lat="44.15943" lon="5.00472">
        <ele>302.5</ele>
        <time>2019-01-17T08:46:57Z</time>
      </trkpt>
      <trkpt lat="44.15945" lon="5.0049">
        <ele>303.4</ele>
        <time>2019-01-17T08:47:15Z</time>
      </trkpt>
      <trkpt lat="44.15946" lon="5.00508">
        <ele>304.9</ele>
        <time>2019-01-17T08:47:32Z</time>
      </trkpt>
      <trkpt lat="44.15944" lon="5.00532">
        <ele>308.1</ele>
        <time>2019-01-17T08:47:50Z</time>
      </trkpt>
      <trkpt lat="44.15947" lon="5.00546">
        <ele>309.1</ele>
        <time>2019-01-17T08:48:09Z</time>
      </trkpt>
      <trkpt lat="44.15949" lon="5.00564">
        <ele>310.7</ele>
        <time>2019-01-17T08:48:30Z</time>
      </trkpt>
      <trkpt lat="44.15948" lon="5.00579">
        <ele>312.7</ele>
        <time>2019-01-17T08:48:42Z</time>
      </trkpt>
      <trkpt lat="44.15945" lon="5.00601">
        <ele>315.7</ele>
        <time>2019-01-17T08:49:02Z</time>
      </trkpt>
      <trkpt lat="44.15947" lon="5.00616">
        <ele>316.8</ele>
        <time>2019-01-17T08:49:20Z</time>
      </trkpt>
      <trkpt lat="44.1595" lon="5.00633">
        <ele>317.8</ele>
        <time>2019-01-17T08:49:35Z</time>
      </trkpt>
      <trkpt lat="44.15947" lon="5.00654">
        <ele>320.7</ele>
        <time>2019-01-17T08:49:54Z</time>
      </trkpt>
      <trkpt lat="44.15943" lon="5.00673">
        <ele>323.7</ele>
        <time>2019-01-17T08:50:07Z</time>
      </trkpt>
      <trkpt lat="44.15939" lon="5.00687">
        <ele>326.4</ele>
        <time>2019-01-17T08:50:20Z</time>
      </trkpt>
      <trkpt lat="44.15937" lon="5.00703">
        <ele>328.8</ele>
        <time>2019-01-17T08:50:31Z</time>
      </trkpt>
      <trkpt lat="44.15935" lon="5.00721">
        <ele>331.5</ele>
        <time>2019-01-17T08:50:41Z</time>
      </trkpt>
      <trkpt lat="44.15935" lon="5.00738">
        <ele>333.4</ele>
        <time>2019-01-17T08:50:55Z</time>
      </trkpt>
      <trkpt lat="44.15933" lon="5.0075">
        <ele>335.5</ele>
        <time>2019-01-17T08:51:07Z</time>
      </trkpt>
      <trkpt lat="44.15934" lon="5.00764">
        <ele>337.4</ele>
        <time>2019-01-17T08:51:19Z</time>
      </trkpt>
      <trkpt lat="44.15934" lon="5.00778">
        <ele>339.7</ele>
        <time>2019-01-17T08:51:32Z</time>
      </trkpt>
      <trkpt lat="44.15928" lon="5.00793">
        <ele>344</ele>
        <time>2019-01-17T08:51:46Z</time>
      </trkpt>
      <trkpt lat="44.15923" lon="5.00809">
        <ele>348.2</ele>
        <time>2019-01-17T08:52:01Z</time>
      </trkpt>
      <trkpt lat="44.15922" lon="5.00826">
        <ele>351.2</ele>
        <time>2019-01-17T08:52:13Z</time>
      </trkpt>
      <trkpt lat="44.15923" lon="5.00842">
        <ele>354</ele>
        <time>2019-01-17T08:52:28Z</time>
      </trkpt>
      <trkpt lat="44.15927" lon="5.00859">
        <ele>356.4</ele>
        <time>2019-01-17T08:52:41Z</time>
      </trkpt>
      <trkpt lat="44.1593" lon="5.00874">
        <ele>358.7</ele>
        <time>2019-01-17T08:52:51Z</time>
      </trkpt>
      <trkpt lat="44.15933" lon="5.0089">
        <ele>361.2</ele>
        <time>2019-01-17T08:53:03Z</time>
      </trkpt>
      <trkpt lat="44.15938" lon="5.0091">
        <ele>363.6</ele>
        <time>2019-01-17T08:53:33Z</time>
      </trkpt>
      <trkpt lat="44.15941" lon="5.00922">
        <ele>365.3</ele>
        <time>2019-01-17T08:54:20Z</time>
      </trkpt>
      <trkpt lat="44.15942" lon="5.00937">
        <ele>368.5</ele>
        <time>2019-01-17T08:55:50Z</time>
      </trkpt>
      <trkpt lat="44.15938" lon="5.00928">
        <ele>367.9</ele>
        <time>2019-01-17T08:58:36Z</time>
      </trkpt>
      <trkpt lat="44.15934" lon="5.00914">
        <ele>366</ele>
        <time>2019-01-17T08:58:49Z</time>
      </trkpt>
      <trkpt lat="44.15927" lon="5.00903">
        <ele>366.1</ele>
        <time>2019-01-17T08:59:00Z</time>
      </trkpt>
      <trkpt lat="44.15922" lon="5.00891">
        <ele>365.3</ele>
        <time>2019-01-17T08:59:09Z</time>
      </trkpt>
      <trkpt lat="44.15917" lon="5.0088">
        <ele>364.5</ele>
        <time>2019-01-17T08:59:21Z</time>
      </trkpt>
      <trkpt lat="44.15907" lon="5.00872">
        <ele>364.6</ele>
        <time>2019-01-17T08:59:32Z</time>
      </trkpt>
      <trkpt lat="44.15898" lon="5.00864">
        <ele>364.2</ele>
        <time>2019-01-17T08:59:45Z</time>
      </trkpt>
      <trkpt lat="44.15889" lon="5.00866">
        <ele>366.3</ele>
        <time>2019-01-17T09:00:00Z</time>
      </trkpt>
      <trkpt lat="44.15881" lon="5.00876">
        <ele>370.4</ele>
        <time>2019-01-17T09:00:11Z</time>
      </trkpt>
      <trkpt lat="44.15869" lon="5.00879">
        <ele>373.5</ele>
        <time>2019-01-17T09:00:24Z</time>
      </trkpt>
      <trkpt lat="44.15857" lon="5.00874">
        <ele>374.3</ele>
        <time>2019-01-17T09:00:36Z</time>
      </trkpt>
      <trkpt lat="44.15846" lon="5.0087">
        <ele>375</ele>
        <time>2019-01-17T09:00:49Z</time>
      </trkpt>
      <trkpt lat="44.15836" lon="5.00868">
        <ele>376.2</ele>
        <time>2019-01-17T09:01:02Z</time>
      </trkpt>
      <trkpt lat="44.15826" lon="5.0087">
        <ele>377</ele>
        <time>2019-01-17T09:01:14Z</time>
      </trkpt>
      <trkpt lat="44.15816" lon="5.00869">
        <ele>376.4</ele>
        <time>2019-01-17T09:01:27Z</time>
      </trkpt>
      <trkpt lat="44.15806" lon="5.0087">
        <ele>376.3</ele>
        <time>2019-01-17T09:01:39Z</time>
      </trkpt>
      <trkpt lat="44.15795" lon="5.00876">
        <ele>377.7</ele>
        <time>2019-01-17T09:01:50Z</time>
      </trkpt>
      <trkpt lat="44.15787" lon="5.00885">
        <ele>379.9</ele>
        <time>2019-01-17T09:02:02Z</time>
      </trkpt>
      <trkpt lat="44.1578" lon="5.00896">
        <ele>382.7</ele>
        <time>2019-01-17T09:02:13Z</time>
      </trkpt>
      <trkpt lat="44.15774" lon="5.00907">
        <ele>385.3</ele>
        <time>2019-01-17T09:02:24Z</time>
      </trkpt>
      <trkpt lat="44.15765" lon="5.00915">
        <ele>386.8</ele>
        <time>2019-01-17T09:02:36Z</time>
      </trkpt>
      <trkpt lat="44.15755" lon="5.00926">
        <ele>389.7</ele>
        <time>2019-01-17T09:02:49Z</time>
      </trkpt>
      <trkpt lat="44.15747" lon="5.00934">
        <ele>392.3</ele>
        <time>2019-01-17T09:02:59Z</time>
      </trkpt>
      <trkpt lat="44.15738" lon="5.0094">
        <ele>394.9</ele>
        <time>2019-01-17T09:03:11Z</time>
      </trkpt>
      <trkpt lat="44.1573" lon="5.00946">
        <ele>397.2</ele>
        <time>2019-01-17T09:03:24Z</time>
      </trkpt>
      <trkpt lat="44.15721" lon="5.00955">
        <ele>400.1</ele>
        <time>2019-01-17T09:03:36Z</time>
      </trkpt>
      <trkpt lat="44.15716" lon="5.00968">
        <ele>403.6</ele>
        <time>2019-01-17T09:03:48Z</time>
      </trkpt>
      <trkpt lat="44.15709" lon="5.00977">
        <ele>405.6</ele>
        <time>2019-01-17T09:04:00Z</time>
      </trkpt>
      <trkpt lat="44.15704" lon="5.0099">
        <ele>408.4</ele>
        <time>2019-01-17T09:04:12Z</time>
      </trkpt>
      <trkpt lat="44.15699" lon="5.01">
        <ele>410.1</ele>
        <time>2019-01-17T09:04:24Z</time>
      </trkpt>
      <trkpt lat="44.15695" lon="5.01013">
        <ele>413.3</ele>
        <time>2019-01-17T09:04:36Z</time>
      </trkpt>
      <trkpt lat="44.15686" lon="5.01022">
        <ele>414.9</ele>
        <time>2019-01-17T09:04:49Z</time>
      </trkpt>
      <trkpt lat="44.15676" lon="5.01026">
        <ele>415.1</ele>
        <time>2019-01-17T09:05:00Z</time>
      </trkpt>
      <trkpt lat="44.15665" lon="5.01023">
        <ele>413.5</ele>
        <time>2019-01-17T09:05:12Z</time>
      </trkpt>
      <trkpt lat="44.15657" lon="5.01015">
        <ele>412.2</ele>
        <time>2019-01-17T09:05:23Z</time>
      </trkpt>
      <trkpt lat="44.15649" lon="5.01008">
        <ele>411.3</ele>
        <time>2019-01-17T09:05:32Z</time>
      </trkpt>
      <trkpt lat="44.1564" lon="5.01001">
        <ele>410.7</ele>
        <time>2019-01-17T09:05:43Z</time>
      </trkpt>
      <trkpt lat="44.1563" lon="5.01004">
        <ele>412.7</ele>
        <time>2019-01-17T09:05:56Z</time>
      </trkpt>
      <trkpt lat="44.15621" lon="5.01005">
        <ele>414</ele>
        <time>2019-01-17T09:06:07Z</time>
      </trkpt>
      <trkpt lat="44.15611" lon="5.01006">
        <ele>415.4</ele>
        <time>2019-01-17T09:06:21Z</time>
      </trkpt>
      <trkpt lat="44.15599" lon="5.01006">
        <ele>416.9</ele>
        <time>2019-01-17T09:06:36Z</time>
      </trkpt>
      <trkpt lat="44.15592" lon="5.01013">
        <ele>418.8</ele>
        <time>2019-01-17T09:07:04Z</time>
      </trkpt>
      <trkpt lat="44.15585" lon="5.01017">
        <ele>420.1</ele>
        <time>2019-01-17T09:09:16Z</time>
      </trkpt>
      <trkpt lat="44.15575" lon="5.0102">
        <ele>418.5</ele>
        <time>2019-01-17T09:09:27Z</time>
      </trkpt>
      <trkpt lat="44.15566" lon="5.01023">
        <ele>416.7</ele>
        <time>2019-01-17T09:09:37Z</time>
      </trkpt>
      <trkpt lat="44.15556" lon="5.01025">
        <ele>414.5</ele>
        <time>2019-01-17T09:09:46Z</time>
      </trkpt>
      <trkpt lat="44.15547" lon="5.01028">
        <ele>412.8</ele>
        <time>2019-01-17T09:09:55Z</time>
      </trkpt>
      <trkpt lat="44.15537" lon="5.01031">
        <ele>411</ele>
        <time>2019-01-17T09:10:06Z</time>
      </trkpt>
      <trkpt lat="44.15527" lon="5.01034">
        <ele>409.1</ele>
        <time>2019-01-17T09:10:15Z</time>
      </trkpt>
      <trkpt lat="44.15518" lon="5.01038">
        <ele>407.8</ele>
        <time>2019-01-17T09:10:24Z</time>
      </trkpt>
      <trkpt lat="44.1551" lon="5.01042">
        <ele>406.9</ele>
        <time>2019-01-17T09:10:33Z</time>
      </trkpt>
      <trkpt lat="44.15502" lon="5.01049">
        <ele>406.6</ele>
        <time>2019-01-17T09:10:42Z</time>
      </trkpt>
      <trkpt lat="44.15494" lon="5.01056">
        <ele>406.5</ele>
        <time>2019-01-17T09:10:51Z</time>
      </trkpt>
      <trkpt lat="44.15485" lon="5.01062">
        <ele>406.1</ele>
        <time>2019-01-17T09:11:01Z</time>
      </trkpt>
      <trkpt lat="44.15474" lon="5.01066">
        <ele>404.9</ele>
        <time>2019-01-17T09:11:11Z</time>
      </trkpt>
      <trkpt lat="44.15465" lon="5.01074">
        <ele>405</ele>
        <time>2019-01-17T09:11:21Z</time>
      </trkpt>
      <trkpt lat="44.15458" lon="5.01085">
        <ele>406.5</ele>
        <time>2019-01-17T09:11:31Z</time>
      </trkpt>
      <trkpt lat="44.15451" lon="5.01095">
        <ele>408.9</ele>
        <time>2019-01-17T09:11:41Z</time>
      </trkpt>
      <trkpt lat="44.15443" lon="5.01105">
        <ele>411.1</ele>
        <time>2019-01-17T09:11:50Z</time>
      </trkpt>
      <trkpt lat="44.15435" lon="5.01112">
        <ele>412.4</ele>
        <time>2019-01-17T09:11:59Z</time>
      </trkpt>
      <trkpt lat="44.15426" lon="5.01117">
        <ele>412.9</ele>
        <time>2019-01-17T09:12:08Z</time>
      </trkpt>
      <trkpt lat="44.15417" lon="5.0112">
        <ele>412.6</ele>
        <time>2019-01-17T09:12:17Z</time>
      </trkpt>
      <trkpt lat="44.15407" lon="5.01124">
        <ele>413.8</ele>
        <time>2019-01-17T09:12:27Z</time>
      </trkpt>
      <trkpt lat="44.15397" lon="5.01129">
        <ele>415.3</ele>
        <time>2019-01-17T09:12:37Z</time>
      </trkpt>
      <trkpt lat="44.15387" lon="5.01132">
        <ele>416.1</ele>
        <time>2019-01-17T09:12:47Z</time>
      </trkpt>
      <trkpt lat="44.15376" lon="5.01136">
        <ele>417.1</ele>
        <time>2019-01-17T09:12:57Z</time>
      </trkpt>
      <trkpt lat="44.15367" lon="5.01136">
        <ele>416.8</ele>
        <time>2019-01-17T09:13:07Z</time>
      </trkpt>
      <trkpt lat="44.15356" lon="5.01135">
        <ele>415.9</ele>
        <time>2019-01-17T09:13:17Z</time>
      </trkpt>
      <trkpt lat="44.15346" lon="5.01135">
        <ele>415.5</ele>
        <time>2019-01-17T09:13:26Z</time>
      </trkpt>
      <trkpt lat="44.15337" lon="5.01135">
        <ele>415.1</ele>
        <time>2019-01-17T09:13:35Z</time>
      </trkpt>
      <trkpt lat="44.15327" lon="5.01136">
        <ele>415.2</ele>
        <time>2019-01-17T09:13:45Z</time>
      </trkpt>
      <trkpt lat="44.15318" lon="5.01137">
        <ele>415.2</ele>
        <time>2019-01-17T09:13:54Z</time>
      </trkpt>
      <trkpt lat="44.15309" lon="5.01139">
        <ele>415.6</ele>
        <time>2019-01-17T09:14:04Z</time>
      </trkpt>
      <trkpt lat="44.153" lon="5.01145">
        <ele>417</ele>
        <time>2019-01-17T09:14:15Z</time>
      </trkpt>
      <trkpt lat="44.15291" lon="5.01153">
        <ele>418.8</ele>
        <time>2019-01-17T09:14:25Z</time>
      </trkpt>
      <trkpt lat="44.15282" lon="5.01162">
        <ele>420.5</ele>
        <time>2019-01-17T09:14:36Z</time>
      </trkpt>
      <trkpt lat="44.15274" lon="5.01169">
        <ele>421.8</ele>
        <time>2019-01-17T09:14:45Z</time>
      </trkpt>
      <trkpt lat="44.15267" lon="5.01176">
        <ele>423.4</ele>
        <time>2019-01-17T09:14:54Z</time>
      </trkpt>
      <trkpt lat="44.15259" lon="5.01186">
        <ele>425.5</ele>
        <time>2019-01-17T09:15:04Z</time>
      </trkpt>
      <trkpt lat="44.15252" lon="5.01196">
        <ele>427.4</ele>
        <time>2019-01-17T09:15:14Z</time>
      </trkpt>
      <trkpt lat="44.15245" lon="5.01207">
        <ele>428.6</ele>
        <time>2019-01-17T09:15:24Z</time>
      </trkpt>
      <trkpt lat="44.15238" lon="5.01218">
        <ele>429.1</ele>
        <time>2019-01-17T09:15:34Z</time>
      </trkpt>
      <trkpt lat="44.15232" lon="5.01228">
        <ele>429.4</ele>
        <time>2019-01-17T09:15:44Z</time>
      </trkpt>
      <trkpt lat="44.15226" lon="5.0124">
        <ele>429.8</ele>
        <time>2019-01-17T09:15:54Z</time>
      </trkpt>
      <trkpt lat="44.15221" lon="5.01251">
        <ele>430</ele>
        <time>2019-01-17T09:16:04Z</time>
      </trkpt>
      <trkpt lat="44.15216" lon="5.01262">
        <ele>429.6</ele>
        <time>2019-01-17T09:16:15Z</time>
      </trkpt>
      <trkpt lat="44.15214" lon="5.01276">
        <ele>430.8</ele>
        <time>2019-01-17T09:16:26Z</time>
      </trkpt>
      <trkpt lat="44.15213" lon="5.01289">
        <ele>432.3</ele>
        <time>2019-01-17T09:16:36Z</time>
      </trkpt>
      <trkpt lat="44.15213" lon="5.01303">
        <ele>434.4</ele>
        <time>2019-01-17T09:16:47Z</time>
      </trkpt>
      <trkpt lat="44.15214" lon="5.01317">
        <ele>437.1</ele>
        <time>2019-01-17T09:16:59Z</time>
      </trkpt>
      <trkpt lat="44.15213" lon="5.01332">
        <ele>438.8</ele>
        <time>2019-01-17T09:17:10Z</time>
      </trkpt>
      <trkpt lat="44.15212" lon="5.01348">
        <ele>438.9</ele>
        <time>2019-01-17T09:17:20Z</time>
      </trkpt>
      <trkpt lat="44.15212" lon="5.01362">
        <ele>439.4</ele>
        <time>2019-01-17T09:17:30Z</time>
      </trkpt>
      <trkpt lat="44.15212" lon="5.01377">
        <ele>439.9</ele>
        <time>2019-01-17T09:17:41Z</time>
      </trkpt>
      <trkpt lat="44.15213" lon="5.01394">
        <ele>441</ele>
        <time>2019-01-17T09:17:52Z</time>
      </trkpt>
      <trkpt lat="44.15215" lon="5.01407">
        <ele>442.5</ele>
        <time>2019-01-17T09:18:02Z</time>
      </trkpt>
      <trkpt lat="44.15217" lon="5.01422">
        <ele>443.5</ele>
        <time>2019-01-17T09:18:12Z</time>
      </trkpt>
      <trkpt lat="44.1522" lon="5.01436">
        <ele>443.8</ele>
        <time>2019-01-17T09:18:22Z</time>
      </trkpt>
      <trkpt lat="44.15223" lon="5.0145">
        <ele>444.1</ele>
        <time>2019-01-17T09:18:32Z</time>
      </trkpt>
      <trkpt lat="44.15226" lon="5.01464">
        <ele>444.4</ele>
        <time>2019-01-17T09:18:42Z</time>
      </trkpt>
      <trkpt lat="44.15229" lon="5.01478">
        <ele>444.7</ele>
        <time>2019-01-17T09:18:51Z</time>
      </trkpt>
      <trkpt lat="44.15232" lon="5.0149">
        <ele>445.1</ele>
        <time>2019-01-17T09:19:00Z</time>
      </trkpt>
      <trkpt lat="44.15236" lon="5.01502">
        <ele>446</ele>
        <time>2019-01-17T09:19:10Z</time>
      </trkpt>
      <trkpt lat="44.15239" lon="5.01516">
        <ele>446</ele>
        <time>2019-01-17T09:19:19Z</time>
      </trkpt>
      <trkpt lat="44.15242" lon="5.01531">
        <ele>445.7</ele>
        <time>2019-01-17T09:19:29Z</time>
      </trkpt>
      <trkpt lat="44.15245" lon="5.01545">
        <ele>445.5</ele>
        <time>2019-01-17T09:19:38Z</time>
      </trkpt>
      <trkpt lat="44.15248" lon="5.01558">
        <ele>445.4</ele>
        <time>2019-01-17T09:19:47Z</time>
      </trkpt>
      <trkpt lat="44.15251" lon="5.01571">
        <ele>445.3</ele>
        <time>2019-01-17T09:19:56Z</time>
      </trkpt>
      <trkpt lat="44.15254" lon="5.01585">
        <ele>445.6</ele>
        <time>2019-01-17T09:20:06Z</time>
      </trkpt>
      <trkpt lat="44.15256" lon="5.016">
        <ele>445.5</ele>
        <time>2019-01-17T09:20:17Z</time>
      </trkpt>
      <trkpt lat="44.15256" lon="5.01614">
        <ele>444.1</ele>
        <time>2019-01-17T09:20:41Z</time>
      </trkpt>
      <trkpt lat="44.15259" lon="5.01629">
        <ele>444.6</ele>
        <time>2019-01-17T09:20:51Z</time>
      </trkpt>
      <trkpt lat="44.15262" lon="5.01642">
        <ele>445.3</ele>
        <time>2019-01-17T09:21:01Z</time>
      </trkpt>
      <trkpt lat="44.15266" lon="5.01655">
        <ele>446.6</ele>
        <time>2019-01-17T09:21:11Z</time>
      </trkpt>
      <trkpt lat="44.15269" lon="5.01668">
        <ele>447.2</ele>
        <time>2019-01-17T09:21:20Z</time>
      </trkpt>
      <trkpt lat="44.15273" lon="5.0168">
        <ele>448.7</ele>
        <time>2019-01-17T09:21:29Z</time>
      </trkpt>
      <trkpt lat="44.15275" lon="5.01693">
        <ele>448.8</ele>
        <time>2019-01-17T09:21:39Z</time>
      </trkpt>
      <trkpt lat="44.15279" lon="5.01706">
        <ele>450.2</ele>
        <time>2019-01-17T09:21:49Z</time>
      </trkpt>
      <trkpt lat="44.15283" lon="5.01721">
        <ele>451.3</ele>
        <time>2019-01-17T09:21:59Z</time>
      </trkpt>
      <trkpt lat="44.15286" lon="5.01735">
        <ele>451.9</ele>
        <time>2019-01-17T09:22:10Z</time>
      </trkpt>
      <trkpt lat="44.15289" lon="5.01748">
        <ele>452.5</ele>
        <time>2019-01-17T09:22:21Z</time>
      </trkpt>
      <trkpt lat="44.1529" lon="5.01764">
        <ele>452.5</ele>
        <time>2019-01-17T09:22:31Z</time>
      </trkpt>
      <trkpt lat="44.1529" lon="5.01779">
        <ele>452</ele>
        <time>2019-01-17T09:22:40Z</time>
      </trkpt>
      <trkpt lat="44.15292" lon="5.01793">
        <ele>452.6</ele>
        <time>2019-01-17T09:22:50Z</time>
      </trkpt>
      <trkpt lat="44.15295" lon="5.01805">
        <ele>453.9</ele>
        <time>2019-01-17T09:23:00Z</time>
      </trkpt>
      <trkpt lat="44.15297" lon="5.01819">
        <ele>454.4</ele>
        <time>2019-01-17T09:23:09Z</time>
      </trkpt>
      <trkpt lat="44.153" lon="5.01832">
        <ele>455.5</ele>
        <time>2019-01-17T09:23:18Z</time>
      </trkpt>
      <trkpt lat="44.15304" lon="5.01845">
        <ele>457.8</ele>
        <time>2019-01-17T09:23:28Z</time>
      </trkpt>
      <trkpt lat="44.15306" lon="5.01858">
        <ele>459.1</ele>
        <time>2019-01-17T09:23:37Z</time>
      </trkpt>
      <trkpt lat="44.15308" lon="5.01871">
        <ele>460.4</ele>
        <time>2019-01-17T09:23:46Z</time>
      </trkpt>
      <trkpt lat="44.15308" lon="5.01885">
        <ele>460.6</ele>
        <time>2019-01-17T09:23:56Z</time>
      </trkpt>
      <trkpt lat="44.15306" lon="5.019">
        <ele>460.1</ele>
        <time>2019-01-17T09:24:06Z</time>
      </trkpt>
      <trkpt lat="44.15304" lon="5.01913">
        <ele>459.6</ele>
        <time>2019-01-17T09:24:16Z</time>
      </trkpt>
      <trkpt lat="44.15301" lon="5.01923">
        <ele>459.2</ele>
        <time>2019-01-17T09:24:34Z</time>
      </trkpt>
      <trkpt lat="44.15299" lon="5.01936">
        <ele>459.6</ele>
        <time>2019-01-17T09:24:46Z</time>
      </trkpt>
      <trkpt lat="44.15295" lon="5.0195">
        <ele>459.5</ele>
        <time>2019-01-17T09:24:56Z</time>
      </trkpt>
      <trkpt lat="44.1529" lon="5.01963">
        <ele>459.2</ele>
        <time>2019-01-17T09:25:06Z</time>
      </trkpt>
      <trkpt lat="44.15283" lon="5.01975">
        <ele>458.3</ele>
        <time>2019-01-17T09:25:15Z</time>
      </trkpt>
      <trkpt lat="44.15275" lon="5.01984">
        <ele>456.9</ele>
        <time>2019-01-17T09:25:25Z</time>
      </trkpt>
      <trkpt lat="44.15266" lon="5.01991">
        <ele>455.2</ele>
        <time>2019-01-17T09:25:35Z</time>
      </trkpt>
      <trkpt lat="44.15256" lon="5.01993">
        <ele>452.6</ele>
        <time>2019-01-17T09:25:45Z</time>
      </trkpt>
      <trkpt lat="44.15246" lon="5.01993">
        <ele>451.6</ele>
        <time>2019-01-17T09:25:55Z</time>
      </trkpt>
      <trkpt lat="44.1524" lon="5.01992">
        <ele>452.5</ele>
        <time>2019-01-17T09:26:19Z</time>
      </trkpt>
      <trkpt lat="44.15232" lon="5.01999">
        <ele>455.1</ele>
        <time>2019-01-17T09:26:28Z</time>
      </trkpt>
      <trkpt lat="44.15222" lon="5.02006">
        <ele>457.6</ele>
        <time>2019-01-17T09:26:40Z</time>
      </trkpt>
      <trkpt lat="44.15217" lon="5.02006">
        <ele>458.5</ele>
        <time>2019-01-17T09:27:39Z</time>
      </trkpt>
      <trkpt lat="44.15208" lon="5.02004">
        <ele>459.9</ele>
        <time>2019-01-17T09:28:07Z</time>
      </trkpt>
      <trkpt lat="44.15211" lon="5.02017">
        <ele>460.5</ele>
        <time>2019-01-17T09:28:32Z</time>
      </trkpt>
      <trkpt lat="44.15216" lon="5.02031">
        <ele>460.8</ele>
        <time>2019-01-17T09:29:23Z</time>
      </trkpt>
      <trkpt lat="44.1521" lon="5.02045">
        <ele>463</ele>
        <time>2019-01-17T09:29:58Z</time>
      </trkpt>
      <trkpt lat="44.15208" lon="5.02062">
        <ele>464.8</ele>
        <time>2019-01-17T09:30:16Z</time>
      </trkpt>
      <trkpt lat="44.15211" lon="5.02082">
        <ele>466</ele>
        <time>2019-01-17T09:30:38Z</time>
      </trkpt>
      <trkpt lat="44.1521" lon="5.02105">
        <ele>465.7</ele>
        <time>2019-01-17T09:30:52Z</time>
      </trkpt>
      <trkpt lat="44.15207" lon="5.02129">
        <ele>465.6</ele>
        <time>2019-01-17T09:31:41Z</time>
      </trkpt>
      <trkpt lat="44.15201" lon="5.02142">
        <ele>466.4</ele>
        <time>2019-01-17T09:32:03Z</time>
      </trkpt>
      <trkpt lat="44.15194" lon="5.02159">
        <ele>467.2</ele>
        <time>2019-01-17T09:32:16Z</time>
      </trkpt>
      <trkpt lat="44.15185" lon="5.02178">
        <ele>467.1</ele>
        <time>2019-01-17T09:32:28Z</time>
      </trkpt>
      <trkpt lat="44.15176" lon="5.02193">
        <ele>466.4</ele>
        <time>2019-01-17T09:32:41Z</time>
      </trkpt>
      <trkpt lat="44.15169" lon="5.0221">
        <ele>464.9</ele>
        <time>2019-01-17T09:32:55Z</time>
      </trkpt>
      <trkpt lat="44.15162" lon="5.02227">
        <ele>464.3</ele>
        <time>2019-01-17T09:33:10Z</time>
      </trkpt>
      <trkpt lat="44.15155" lon="5.02246">
        <ele>464.1</ele>
        <time>2019-01-17T09:33:24Z</time>
      </trkpt>
      <trkpt lat="44.15146" lon="5.02263">
        <ele>465.5</ele>
        <time>2019-01-17T09:33:37Z</time>
      </trkpt>
      <trkpt lat="44.1514" lon="5.02281">
        <ele>465.8</ele>
        <time>2019-01-17T09:33:50Z</time>
      </trkpt>
      <trkpt lat="44.15134" lon="5.02296">
        <ele>466.4</ele>
        <time>2019-01-17T09:33:59Z</time>
      </trkpt>
      <trkpt lat="44.15128" lon="5.02313">
        <ele>466.7</ele>
        <time>2019-01-17T09:34:10Z</time>
      </trkpt>
      <trkpt lat="44.15122" lon="5.02329">
        <ele>467.1</ele>
        <time>2019-01-17T09:34:19Z</time>
      </trkpt>
      <trkpt lat="44.15117" lon="5.02345">
        <ele>466.7</ele>
        <time>2019-01-17T09:34:29Z</time>
      </trkpt>
      <trkpt lat="44.15112" lon="5.02362">
        <ele>466.1</ele>
        <time>2019-01-17T09:34:41Z</time>
      </trkpt>
      <trkpt lat="44.1511" lon="5.02372">
        <ele>465.4</ele>
        <time>2019-01-17T09:35:05Z</time>
      </trkpt>
      <trkpt lat="44.15107" lon="5.0239">
        <ele>463.8</ele>
        <time>2019-01-17T09:35:19Z</time>
      </trkpt>
      <trkpt lat="44.15104" lon="5.02406">
        <ele>462.6</ele>
        <time>2019-01-17T09:35:36Z</time>
      </trkpt>
      <trkpt lat="44.15099" lon="5.02421">
        <ele>462.3</ele>
        <time>2019-01-17T09:35:50Z</time>
      </trkpt>
      <trkpt lat="44.15094" lon="5.02436">
        <ele>461.7</ele>
        <time>2019-01-17T09:36:02Z</time>
      </trkpt>
      <trkpt lat="44.15092" lon="5.02451">
        <ele>460</ele>
        <time>2019-01-17T09:36:20Z</time>
      </trkpt>
      <trkpt lat="44.15087" lon="5.02467">
        <ele>459.2</ele>
        <time>2019-01-17T09:36:44Z</time>
      </trkpt>
      <trkpt lat="44.15087" lon="5.02479">
        <ele>457.2</ele>
        <time>2019-01-17T09:38:22Z</time>
      </trkpt>
      <trkpt lat="44.15086" lon="5.02495">
        <ele>454.9</ele>
        <time>2019-01-17T09:38:36Z</time>
      </trkpt>
      <trkpt lat="44.15081" lon="5.0251">
        <ele>454.9</ele>
        <time>2019-01-17T09:38:48Z</time>
      </trkpt>
      <trkpt lat="44.15078" lon="5.02525">
        <ele>454.5</ele>
        <time>2019-01-17T09:39:00Z</time>
      </trkpt>
      <trkpt lat="44.15073" lon="5.02539">
        <ele>455.5</ele>
        <time>2019-01-17T09:39:12Z</time>
      </trkpt>
      <trkpt lat="44.1507" lon="5.02554">
        <ele>455.3</ele>
        <time>2019-01-17T09:39:24Z</time>
      </trkpt>
      <trkpt lat="44.15066" lon="5.02569">
        <ele>455.7</ele>
        <time>2019-01-17T09:39:35Z</time>
      </trkpt>
      <trkpt lat="44.15062" lon="5.02583">
        <ele>456.3</ele>
        <time>2019-01-17T09:39:51Z</time>
      </trkpt>
      <trkpt lat="44.15058" lon="5.02597">
        <ele>456.6</ele>
        <time>2019-01-17T09:40:17Z</time>
      </trkpt>
      <trkpt lat="44.15056" lon="5.02612">
        <ele>455.5</ele>
        <time>2019-01-17T09:40:30Z</time>
      </trkpt>
      <trkpt lat="44.15053" lon="5.02629">
        <ele>454.5</ele>
        <time>2019-01-17T09:40:48Z</time>
      </trkpt>
      <trkpt lat="44.15048" lon="5.02644">
        <ele>454.5</ele>
        <time>2019-01-17T09:41:18Z</time>
      </trkpt>
      <trkpt lat="44.15045" lon="5.02662">
        <ele>452.9</ele>
        <time>2019-01-17T09:41:31Z</time>
      </trkpt>
      <trkpt lat="44.15041" lon="5.02677">
        <ele>452.4</ele>
        <time>2019-01-17T09:41:44Z</time>
      </trkpt>
      <trkpt lat="44.15038" lon="5.02691">
        <ele>451.8</ele>
        <time>2019-01-17T09:41:55Z</time>
      </trkpt>
      <trkpt lat="44.15035" lon="5.02705">
        <ele>451.1</ele>
        <time>2019-01-17T09:42:13Z</time>
      </trkpt>
      <trkpt lat="44.1503" lon="5.02717">
        <ele>451.4</ele>
        <time>2019-01-17T09:42:23Z</time>
      </trkpt>
      <trkpt lat="44.15029" lon="5.02733">
        <ele>449.6</ele>
        <time>2019-01-17T09:42:32Z</time>
      </trkpt>
      <trkpt lat="44.15029" lon="5.02749">
        <ele>447.4</ele>
        <time>2019-01-17T09:42:45Z</time>
      </trkpt>
      <trkpt lat="44.15029" lon="5.02764">
        <ele>445.5</ele>
        <time>2019-01-17T09:42:57Z</time>
      </trkpt>
      <trkpt lat="44.15032" lon="5.02769">
        <ele>443.7</ele>
        <time>2019-01-17T09:43:25Z</time>
      </trkpt>
      <trkpt lat="44.15037" lon="5.0278">
        <ele>440.4</ele>
        <time>2019-01-17T09:43:35Z</time>
      </trkpt>
      <trkpt lat="44.15035" lon="5.02792">
        <ele>439.6</ele>
        <time>2019-01-17T09:43:44Z</time>
      </trkpt>
      <trkpt lat="44.15033" lon="5.02807">
        <ele>438.5</ele>
        <time>2019-01-17T09:43:54Z</time>
      </trkpt>
      <trkpt lat="44.15031" lon="5.02821">
        <ele>437.5</ele>
        <time>2019-01-17T09:44:04Z</time>
      </trkpt>
      <trkpt lat="44.15027" lon="5.02836">
        <ele>437.3</ele>
        <time>2019-01-17T09:44:16Z</time>
      </trkpt>
      <trkpt lat="44.15027" lon="5.02851">
        <ele>435.6</ele>
        <time>2019-01-17T09:44:27Z</time>
      </trkpt>
      <trkpt lat="44.15026" lon="5.02866">
        <ele>434.3</ele>
        <time>2019-01-17T09:44:38Z</time>
      </trkpt>
      <trkpt lat="44.15022" lon="5.02883">
        <ele>433.8</ele>
        <time>2019-01-17T09:44:48Z</time>
      </trkpt>
      <trkpt lat="44.15018" lon="5.02897">
        <ele>433.7</ele>
        <time>2019-01-17T09:44:59Z</time>
      </trkpt>
      <trkpt lat="44.15017" lon="5.02912">
        <ele>432.2</ele>
        <time>2019-01-17T09:45:13Z</time>
      </trkpt>
      <trkpt lat="44.15017" lon="5.02927">
        <ele>430.6</ele>
        <time>2019-01-17T09:45:32Z</time>
      </trkpt>
      <trkpt lat="44.15014" lon="5.02943">
        <ele>430</ele>
        <time>2019-01-17T09:45:43Z</time>
      </trkpt>
      <trkpt lat="44.15015" lon="5.02957">
        <ele>428.1</ele>
        <time>2019-01-17T09:45:56Z</time>
      </trkpt>
      <trkpt lat="44.15019" lon="5.02968">
        <ele>425.6</ele>
        <time>2019-01-17T09:46:09Z</time>
      </trkpt>
      <trkpt lat="44.15018" lon="5.0298">
        <ele>424.7</ele>
        <time>2019-01-17T09:46:33Z</time>
      </trkpt>
      <trkpt lat="44.15018" lon="5.02991">
        <ele>423.5</ele>
        <time>2019-01-17T09:54:39Z</time>
      </trkpt>
      <trkpt lat="44.15022" lon="5.03002">
        <ele>421.2</ele>
        <time>2019-01-17T09:55:05Z</time>
      </trkpt>
      <trkpt lat="44.15025" lon="5.03012">
        <ele>419.7</ele>
        <time>2019-01-17T09:55:36Z</time>
      </trkpt>
      <trkpt lat="44.15032" lon="5.03022">
        <ele>417.2</ele>
        <time>2019-01-17T09:56:00Z</time>
      </trkpt>
      <trkpt lat="44.15036" lon="5.03036">
        <ele>415.6</ele>
        <time>2019-01-17T09:56:15Z</time>
      </trkpt>
      <trkpt lat="44.1504" lon="5.03048">
        <ele>414.4</ele>
        <time>2019-01-17T09:56:37Z</time>
      </trkpt>
      <trkpt lat="44.15048" lon="5.03055">
        <ele>412.8</ele>
        <time>2019-01-17T09:57:03Z</time>
      </trkpt>
      <trkpt lat="44.15058" lon="5.03056">
        <ele>411.2</ele>
        <time>2019-01-17T09:57:44Z</time>
      </trkpt>
      <trkpt lat="44.15066" lon="5.03062">
        <ele>410</ele>
        <time>2019-01-17T09:58:08Z</time>
      </trkpt>
      <trkpt lat="44.15074" lon="5.03066">
        <ele>409</ele>
        <time>2019-01-17T09:58:49Z</time>
      </trkpt>
      <trkpt lat="44.15082" lon="5.0307">
        <ele>408.2</ele>
        <time>2019-01-17T09:59:16Z</time>
      </trkpt>
      <trkpt lat="44.15088" lon="5.03073">
        <ele>406.5</ele>
        <time>2019-01-17T09:59:43Z</time>
      </trkpt>
      <trkpt lat="44.15089" lon="5.0308">
        <ele>406.6</ele>
        <time>2019-01-17T10:00:15Z</time>
      </trkpt>
      <trkpt lat="44.1509" lon="5.03093">
        <ele>406.6</ele>
        <time>2019-01-17T10:00:55Z</time>
      </trkpt>
      <trkpt lat="44.1509" lon="5.03109">
        <ele>407</ele>
        <time>2019-01-17T10:01:09Z</time>
      </trkpt>
      <trkpt lat="44.15092" lon="5.03119">
        <ele>406.4</ele>
        <time>2019-01-17T10:01:31Z</time>
      </trkpt>
      <trkpt lat="44.15091" lon="5.03131">
        <ele>407</ele>
        <time>2019-01-17T10:02:14Z</time>
      </trkpt>
      <trkpt lat="44.15094" lon="5.03135">
        <ele>405.9</ele>
        <time>2019-01-17T10:02:35Z</time>
      </trkpt>
      <trkpt lat="44.15099" lon="5.03146">
        <ele>404.1</ele>
        <time>2019-01-17T10:02:49Z</time>
      </trkpt>
      <trkpt lat="44.15104" lon="5.03162">
        <ele>402.2</ele>
        <time>2019-01-17T10:03:02Z</time>
      </trkpt>
      <trkpt lat="44.15106" lon="5.03176">
        <ele>400.9</ele>
        <time>2019-01-17T10:03:11Z</time>
      </trkpt>
      <trkpt lat="44.15109" lon="5.03189">
        <ele>398.9</ele>
        <time>2019-01-17T10:03:25Z</time>
      </trkpt>
      <trkpt lat="44.15115" lon="5.03201">
        <ele>395.9</ele>
        <time>2019-01-17T10:03:38Z</time>
      </trkpt>
      <trkpt lat="44.15116" lon="5.03215">
        <ele>394.7</ele>
        <time>2019-01-17T10:03:48Z</time>
      </trkpt>
      <trkpt lat="44.15119" lon="5.03228">
        <ele>392.9</ele>
        <time>2019-01-17T10:03:56Z</time>
      </trkpt>
      <trkpt lat="44.15122" lon="5.0324">
        <ele>391.1</ele>
        <time>2019-01-17T10:04:04Z</time>
      </trkpt>
      <trkpt lat="44.15125" lon="5.03253">
        <ele>389.4</ele>
        <time>2019-01-17T10:04:14Z</time>
      </trkpt>
      <trkpt lat="44.1513" lon="5.03265">
        <ele>387.3</ele>
        <time>2019-01-17T10:04:25Z</time>
      </trkpt>
      <trkpt lat="44.15134" lon="5.03277">
        <ele>385.4</ele>
        <time>2019-01-17T10:04:37Z</time>
      </trkpt>
      <trkpt lat="44.15136" lon="5.03292">
        <ele>384.3</ele>
        <time>2019-01-17T10:04:48Z</time>
      </trkpt>
      <trkpt lat="44.15138" lon="5.03306">
        <ele>383.1</ele>
        <time>2019-01-17T10:04:59Z</time>
      </trkpt>
      <trkpt lat="44.1514" lon="5.03319">
        <ele>382</ele>
        <time>2019-01-17T10:05:11Z</time>
      </trkpt>
      <trkpt lat="44.15145" lon="5.0333">
        <ele>379.7</ele>
        <time>2019-01-17T10:05:22Z</time>
      </trkpt>
      <trkpt lat="44.15149" lon="5.03343">
        <ele>377.6</ele>
        <time>2019-01-17T10:05:32Z</time>
      </trkpt>
      <trkpt lat="44.15152" lon="5.03354">
        <ele>376</ele>
        <time>2019-01-17T10:05:41Z</time>
      </trkpt>
      <trkpt lat="44.15156" lon="5.03366">
        <ele>374.2</ele>
        <time>2019-01-17T10:05:50Z</time>
      </trkpt>
      <trkpt lat="44.15159" lon="5.03377">
        <ele>372.9</ele>
        <time>2019-01-17T10:05:58Z</time>
      </trkpt>
      <trkpt lat="44.15161" lon="5.03391">
        <ele>371.9</ele>
        <time>2019-01-17T10:06:07Z</time>
      </trkpt>
      <trkpt lat="44.15163" lon="5.03403">
        <ele>371.1</ele>
        <time>2019-01-17T10:06:15Z</time>
      </trkpt>
      <trkpt lat="44.15166" lon="5.03415">
        <ele>370.2</ele>
        <time>2019-01-17T10:06:23Z</time>
      </trkpt>
      <trkpt lat="44.15167" lon="5.03428">
        <ele>370.7</ele>
        <time>2019-01-17T10:06:32Z</time>
      </trkpt>
      <trkpt lat="44.15166" lon="5.03441">
        <ele>371.9</ele>
        <time>2019-01-17T10:06:55Z</time>
      </trkpt>
      <trkpt lat="44.15169" lon="5.03454">
        <ele>372.1</ele>
        <time>2019-01-17T10:07:16Z</time>
      </trkpt>
      <trkpt lat="44.15173" lon="5.03465">
        <ele>371.6</ele>
        <time>2019-01-17T10:07:33Z</time>
      </trkpt>
      <trkpt lat="44.15182" lon="5.0347">
        <ele>369.2</ele>
        <time>2019-01-17T10:07:47Z</time>
      </trkpt>
      <trkpt lat="44.15188" lon="5.03481">
        <ele>367.8</ele>
        <time>2019-01-17T10:08:00Z</time>
      </trkpt>
      <trkpt lat="44.15195" lon="5.03491">
        <ele>365.7</ele>
        <time>2019-01-17T10:08:11Z</time>
      </trkpt>
      <trkpt lat="44.15201" lon="5.03502">
        <ele>363.8</ele>
        <time>2019-01-17T10:08:20Z</time>
      </trkpt>
      <trkpt lat="44.15206" lon="5.03514">
        <ele>362.9</ele>
        <time>2019-01-17T10:08:29Z</time>
      </trkpt>
      <trkpt lat="44.15211" lon="5.03527">
        <ele>361.9</ele>
        <time>2019-01-17T10:08:37Z</time>
      </trkpt>
      <trkpt lat="44.15216" lon="5.03539">
        <ele>360.8</ele>
        <time>2019-01-17T10:08:45Z</time>
      </trkpt>
      <trkpt lat="44.15221" lon="5.03553">
        <ele>359.7</ele>
        <time>2019-01-17T10:08:54Z</time>
      </trkpt>
      <trkpt lat="44.15227" lon="5.03564">
        <ele>357.9</ele>
        <time>2019-01-17T10:09:02Z</time>
      </trkpt>
      <trkpt lat="44.15232" lon="5.03574">
        <ele>356.3</ele>
        <time>2019-01-17T10:09:09Z</time>
      </trkpt>
      <trkpt lat="44.15237" lon="5.03587">
        <ele>355</ele>
        <time>2019-01-17T10:09:16Z</time>
      </trkpt>
      <trkpt lat="44.15242" lon="5.03599">
        <ele>354.2</ele>
        <time>2019-01-17T10:09:24Z</time>
      </trkpt>
      <trkpt lat="44.15248" lon="5.03611">
        <ele>352.9</ele>
        <time>2019-01-17T10:09:32Z</time>
      </trkpt>
      <trkpt lat="44.15254" lon="5.03621">
        <ele>352.1</ele>
        <time>2019-01-17T10:09:39Z</time>
      </trkpt>
      <trkpt lat="44.15257" lon="5.03633">
        <ele>352.6</ele>
        <time>2019-01-17T10:09:47Z</time>
      </trkpt>
      <trkpt lat="44.15261" lon="5.03646">
        <ele>352.6</ele>
        <time>2019-01-17T10:10:06Z</time>
      </trkpt>
      <trkpt lat="44.15268" lon="5.03656">
        <ele>351.2</ele>
        <time>2019-01-17T10:10:32Z</time>
      </trkpt>
      <trkpt lat="44.15275" lon="5.03665">
        <ele>349.5</ele>
        <time>2019-01-17T10:11:14Z</time>
      </trkpt>
      <trkpt lat="44.15279" lon="5.03675">
        <ele>349.5</ele>
        <time>2019-01-17T10:11:37Z</time>
      </trkpt>
      <trkpt lat="44.15285" lon="5.03679">
        <ele>348</ele>
        <time>2019-01-17T10:12:07Z</time>
      </trkpt>
      <trkpt lat="44.15293" lon="5.03671">
        <ele>344.1</ele>
        <time>2019-01-17T10:12:39Z</time>
      </trkpt>
      <trkpt lat="44.15299" lon="5.03666">
        <ele>341.5</ele>
        <time>2019-01-17T10:13:35Z</time>
      </trkpt>
      <trkpt lat="44.15305" lon="5.03655">
        <ele>339.7</ele>
        <time>2019-01-17T10:14:05Z</time>
      </trkpt>
      <trkpt lat="44.15315" lon="5.03653">
        <ele>336.7</ele>
        <time>2019-01-17T10:14:36Z</time>
      </trkpt>
      <trkpt lat="44.15323" lon="5.03664">
        <ele>333.6</ele>
        <time>2019-01-17T10:14:59Z</time>
      </trkpt>
      <trkpt lat="44.15329" lon="5.03674">
        <ele>332.3</ele>
        <time>2019-01-17T10:15:18Z</time>
      </trkpt>
      <trkpt lat="44.15338" lon="5.03663">
        <ele>330.6</ele>
        <time>2019-01-17T10:15:33Z</time>
      </trkpt>
      <trkpt lat="44.15348" lon="5.03655">
        <ele>332.2</ele>
        <time>2019-01-17T10:15:49Z</time>
      </trkpt>
      <trkpt lat="44.15357" lon="5.03644">
        <ele>334.3</ele>
        <time>2019-01-17T10:16:09Z</time>
      </trkpt>
      <trkpt lat="44.15367" lon="5.03654">
        <ele>333.9</ele>
        <time>2019-01-17T10:16:26Z</time>
      </trkpt>
      <trkpt lat="44.15375" lon="5.03663">
        <ele>333.1</ele>
        <time>2019-01-17T10:16:37Z</time>
      </trkpt>
      <trkpt lat="44.1538" lon="5.03678">
        <ele>332.4</ele>
        <time>2019-01-17T10:16:49Z</time>
      </trkpt>
      <trkpt lat="44.15388" lon="5.03686">
        <ele>332.1</ele>
        <time>2019-01-17T10:17:01Z</time>
      </trkpt>
      <trkpt lat="44.15398" lon="5.03693">
        <ele>331.4</ele>
        <time>2019-01-17T10:17:12Z</time>
      </trkpt>
      <trkpt lat="44.15409" lon="5.03697">
        <ele>330.6</ele>
        <time>2019-01-17T10:17:23Z</time>
      </trkpt>
      <trkpt lat="44.15419" lon="5.03702">
        <ele>329.8</ele>
        <time>2019-01-17T10:17:37Z</time>
      </trkpt>
      <trkpt lat="44.15428" lon="5.03711">
        <ele>329.5</ele>
        <time>2019-01-17T10:17:52Z</time>
      </trkpt>
      <trkpt lat="44.15436" lon="5.03719">
        <ele>329.1</ele>
        <time>2019-01-17T10:18:03Z</time>
      </trkpt>
      <trkpt lat="44.15445" lon="5.03726">
        <ele>328.8</ele>
        <time>2019-01-17T10:18:13Z</time>
      </trkpt>
      <trkpt lat="44.15453" lon="5.03732">
        <ele>328.4</ele>
        <time>2019-01-17T10:18:23Z</time>
      </trkpt>
      <trkpt lat="44.15465" lon="5.03737">
        <ele>328.4</ele>
        <time>2019-01-17T10:18:40Z</time>
      </trkpt>
      <trkpt lat="44.1547" lon="5.03745">
        <ele>327</ele>
        <time>2019-01-17T10:18:53Z</time>
      </trkpt>
      <trkpt lat="44.15475" lon="5.03756">
        <ele>325.1</ele>
        <time>2019-01-17T10:19:05Z</time>
      </trkpt>
      <trkpt lat="44.15482" lon="5.03767">
        <ele>323</ele>
        <time>2019-01-17T10:19:16Z</time>
      </trkpt>
      <trkpt lat="44.15487" lon="5.03779">
        <ele>320.1</ele>
        <time>2019-01-17T10:19:26Z</time>
      </trkpt>
      <trkpt lat="44.15497" lon="5.03787">
        <ele>317.2</ele>
        <time>2019-01-17T10:19:37Z</time>
      </trkpt>
      <trkpt lat="44.15501" lon="5.038">
        <ele>313.5</ele>
        <time>2019-01-17T10:19:47Z</time>
      </trkpt>
      <trkpt lat="44.15506" lon="5.03811">
        <ele>312.4</ele>
        <time>2019-01-17T10:19:57Z</time>
      </trkpt>
      <trkpt lat="44.15511" lon="5.03826">
        <ele>310</ele>
        <time>2019-01-17T10:20:11Z</time>
      </trkpt>
      <trkpt lat="44.15517" lon="5.03838">
        <ele>309.8</ele>
        <time>2019-01-17T10:20:27Z</time>
      </trkpt>
      <trkpt lat="44.15527" lon="5.03848">
        <ele>312.8</ele>
        <time>2019-01-17T10:20:42Z</time>
      </trkpt>
      <trkpt lat="44.15535" lon="5.03855">
        <ele>314.9</ele>
        <time>2019-01-17T10:20:53Z</time>
      </trkpt>
      <trkpt lat="44.15533" lon="5.0387">
        <ele>312</ele>
        <time>2019-01-17T10:21:02Z</time>
      </trkpt>
      <trkpt lat="44.15532" lon="5.03892">
        <ele>308.5</ele>
        <time>2019-01-17T10:21:16Z</time>
      </trkpt>
      <trkpt lat="44.15535" lon="5.03909">
        <ele>307</ele>
        <time>2019-01-17T10:21:31Z</time>
      </trkpt>
      <trkpt lat="44.15544" lon="5.03923">
        <ele>307.9</ele>
        <time>2019-01-17T10:21:50Z</time>
      </trkpt>
      <trkpt lat="44.15552" lon="5.03933">
        <ele>309.3</ele>
        <time>2019-01-17T10:22:01Z</time>
      </trkpt>
      <trkpt lat="44.1555" lon="5.03953">
        <ele>308.1</ele>
        <time>2019-01-17T10:22:19Z</time>
      </trkpt>
      <trkpt lat="44.1555" lon="5.0397">
        <ele>307.4</ele>
        <time>2019-01-17T10:22:32Z</time>
      </trkpt>
      <trkpt lat="44.15553" lon="5.03984">
        <ele>307.1</ele>
        <time>2019-01-17T10:22:45Z</time>
      </trkpt>
      <trkpt lat="44.15558" lon="5.03998">
        <ele>306.5</ele>
        <time>2019-01-17T10:22:56Z</time>
      </trkpt>
      <trkpt lat="44.15562" lon="5.04014">
        <ele>304.5</ele>
        <time>2019-01-17T10:23:10Z</time>
      </trkpt>
      <trkpt lat="44.1557" lon="5.04026">
        <ele>302.3</ele>
        <time>2019-01-17T10:23:22Z</time>
      </trkpt>
      <trkpt lat="44.15575" lon="5.0404">
        <ele>299.3</ele>
        <time>2019-01-17T10:23:35Z</time>
      </trkpt>
      <trkpt lat="44.1558" lon="5.04055">
        <ele>295.7</ele>
        <time>2019-01-17T10:23:47Z</time>
      </trkpt>
      <trkpt lat="44.15583" lon="5.04071">
        <ele>291.7</ele>
        <time>2019-01-17T10:23:57Z</time>
      </trkpt>
      <trkpt lat="44.15591" lon="5.04082">
        <ele>291.8</ele>
        <time>2019-01-17T10:24:08Z</time>
      </trkpt>
      <trkpt lat="44.15594" lon="5.04098">
        <ele>291.2</ele>
        <time>2019-01-17T10:24:17Z</time>
      </trkpt>
      <trkpt lat="44.15595" lon="5.04111">
        <ele>290.4</ele>
        <time>2019-01-17T10:24:25Z</time>
      </trkpt>
      <trkpt lat="44.15601" lon="5.04123">
        <ele>290.8</ele>
        <time>2019-01-17T10:24:34Z</time>
      </trkpt>
      <trkpt lat="44.15608" lon="5.04135">
        <ele>291.1</ele>
        <time>2019-01-17T10:24:45Z</time>
      </trkpt>
      <trkpt lat="44.15616" lon="5.04146">
        <ele>291.4</ele>
        <time>2019-01-17T10:24:56Z</time>
      </trkpt>
      <trkpt lat="44.1562" lon="5.0416">
        <ele>290.2</ele>
        <time>2019-01-17T10:25:05Z</time>
      </trkpt>
      <trkpt lat="44.15625" lon="5.04173">
        <ele>289.7</ele>
        <time>2019-01-17T10:25:15Z</time>
      </trkpt>
      <trkpt lat="44.15626" lon="5.04194">
        <ele>288.6</ele>
        <time>2019-01-17T10:25:28Z</time>
      </trkpt>
      <trkpt lat="44.1563" lon="5.04211">
        <ele>288.1</ele>
        <time>2019-01-17T10:25:39Z</time>
      </trkpt>
      <trkpt lat="44.15634" lon="5.04226">
        <ele>287.6</ele>
        <time>2019-01-17T10:25:51Z</time>
      </trkpt>
      <trkpt lat="44.15633" lon="5.04246">
        <ele>286.2</ele>
        <time>2019-01-17T10:26:02Z</time>
      </trkpt>
      <trkpt lat="44.15635" lon="5.04264">
        <ele>284.8</ele>
        <time>2019-01-17T10:26:25Z</time>
      </trkpt>
      <trkpt lat="44.15631" lon="5.04266">
        <ele>284.5</ele>
        <time>2019-01-17T10:27:22Z</time>
      </trkpt>
      <trkpt lat="44.15626" lon="5.04279">
        <ele>283.4</ele>
        <time>2019-01-17T10:27:49Z</time>
      </trkpt>
      <trkpt lat="44.15627" lon="5.04294">
        <ele>282.3</ele>
        <time>2019-01-17T10:28:00Z</time>
      </trkpt>
      <trkpt lat="44.15634" lon="5.04306">
        <ele>281</ele>
        <time>2019-01-17T10:28:13Z</time>
      </trkpt>
      <trkpt lat="44.15636" lon="5.04319">
        <ele>279.7</ele>
        <time>2019-01-17T10:28:22Z</time>
      </trkpt>
      <trkpt lat="44.15636" lon="5.0433">
        <ele>278.6</ele>
        <time>2019-01-17T10:28:57Z</time>
      </trkpt>
      <trkpt lat="44.1564" lon="5.04344">
        <ele>277.3</ele>
        <time>2019-01-17T10:29:13Z</time>
      </trkpt>
      <trkpt lat="44.15646" lon="5.0436">
        <ele>275.2</ele>
        <time>2019-01-17T10:29:25Z</time>
      </trkpt>
      <trkpt lat="44.15651" lon="5.04376">
        <ele>272.9</ele>
        <time>2019-01-17T10:29:38Z</time>
      </trkpt>
      <trkpt lat="44.15655" lon="5.04389">
        <ele>270.7</ele>
        <time>2019-01-17T10:29:47Z</time>
      </trkpt>
      <trkpt lat="44.15656" lon="5.04409">
        <ele>268.4</ele>
        <time>2019-01-17T10:29:58Z</time>
      </trkpt>
      <trkpt lat="44.15662" lon="5.04424">
        <ele>265.3</ele>
        <time>2019-01-17T10:30:12Z</time>
      </trkpt>
      <trkpt lat="44.15666" lon="5.04436">
        <ele>263.3</ele>
        <time>2019-01-17T10:30:21Z</time>
      </trkpt>
      <trkpt lat="44.15673" lon="5.04448">
        <ele>263.1</ele>
        <time>2019-01-17T10:30:31Z</time>
      </trkpt>
      <trkpt lat="44.15674" lon="5.04462">
        <ele>262.4</ele>
        <time>2019-01-17T10:30:41Z</time>
      </trkpt>
      <trkpt lat="44.15668" lon="5.04484">
        <ele>260.8</ele>
        <time>2019-01-17T10:31:50Z</time>
      </trkpt>
      <trkpt lat="44.15668" lon="5.04502">
        <ele>260</ele>
        <time>2019-01-17T10:32:35Z</time>
      </trkpt>
      <trkpt lat="44.15674" lon="5.04515">
        <ele>260.2</ele>
        <time>2019-01-17T10:32:54Z</time>
      </trkpt>
      <trkpt lat="44.15688" lon="5.04517">
        <ele>260.6</ele>
        <time>2019-01-17T10:33:12Z</time>
      </trkpt>
      <trkpt lat="44.15703" lon="5.04527">
        <ele>261.3</ele>
        <time>2019-01-17T10:33:34Z</time>
      </trkpt>
      <trkpt lat="44.15714" lon="5.04533">
        <ele>261.9</ele>
        <time>2019-01-17T10:34:18Z</time>
      </trkpt>
      <trkpt lat="44.15722" lon="5.04544">
        <ele>262.8</ele>
        <time>2019-01-17T10:34:31Z</time>
      </trkpt>
      <trkpt lat="44.1573" lon="5.04556">
        <ele>263.8</ele>
        <time>2019-01-17T10:34:44Z</time>
      </trkpt>
      <trkpt lat="44.15734" lon="5.04567">
        <ele>264.7</ele>
        <time>2019-01-17T10:35:03Z</time>
      </trkpt>
      <trkpt lat="44.15728" lon="5.04584">
        <ele>265.3</ele>
        <time>2019-01-17T10:35:34Z</time>
      </trkpt>
      <trkpt lat="44.15716" lon="5.04603">
        <ele>268.7</ele>
        <time>2019-01-17T10:35:58Z</time>
      </trkpt>
      <trkpt lat="44.15703" lon="5.04616">
        <ele>269.8</ele>
        <time>2019-01-17T10:36:17Z</time>
      </trkpt>
      <trkpt lat="44.15698" lon="5.04632">
        <ele>272.3</ele>
        <time>2019-01-17T10:36:49Z</time>
      </trkpt>
      <trkpt lat="44.15689" lon="5.04648">
        <ele>273.7</ele>
        <time>2019-01-17T10:37:43Z</time>
      </trkpt>
      <trkpt lat="44.15677" lon="5.04667">
        <ele>274.4</ele>
        <time>2019-01-17T10:38:31Z</time>
      </trkpt>
      <trkpt lat="44.15669" lon="5.0468">
        <ele>274.7</ele>
        <time>2019-01-17T10:39:29Z</time>
      </trkpt>
      <trkpt lat="44.15674" lon="5.04683">
        <ele>276.5</ele>
        <time>2019-01-17T10:39:50Z</time>
      </trkpt>
      <trkpt lat="44.15677" lon="5.04688">
        <ele>278.3</ele>
        <time>2019-01-17T10:40:08Z</time>
      </trkpt>
      <trkpt lat="44.1567" lon="5.04708">
        <ele>279.6</ele>
        <time>2019-01-17T10:41:00Z</time>
      </trkpt>
      <trkpt lat="44.15674" lon="5.04704">
        <ele>280.2</ele>
        <time>2019-01-17T10:42:14Z</time>
      </trkpt>
      <trkpt lat="44.15684" lon="5.04698">
        <ele>282.2</ele>
        <time>2019-01-17T10:42:39Z</time>
      </trkpt>
      <trkpt lat="44.15694" lon="5.04691">
        <ele>283.8</ele>
        <time>2019-01-17T10:42:48Z</time>
      </trkpt>
      <trkpt lat="44.15706" lon="5.04683">
        <ele>285.2</ele>
        <time>2019-01-17T10:43:01Z</time>
      </trkpt>
      <trkpt lat="44.15716" lon="5.04676">
        <ele>285.9</ele>
        <time>2019-01-17T10:43:11Z</time>
      </trkpt>
      <trkpt lat="44.15724" lon="5.04667">
        <ele>285.2</ele>
        <time>2019-01-17T10:43:21Z</time>
      </trkpt>
      <trkpt lat="44.15734" lon="5.04659">
        <ele>285.4</ele>
        <time>2019-01-17T10:43:31Z</time>
      </trkpt>
      <trkpt lat="44.15743" lon="5.0465">
        <ele>284.8</ele>
        <time>2019-01-17T10:43:40Z</time>
      </trkpt>
      <trkpt lat="44.15752" lon="5.0464">
        <ele>283.4</ele>
        <time>2019-01-17T10:43:50Z</time>
      </trkpt>
      <trkpt lat="44.1576" lon="5.0463">
        <ele>281.1</ele>
        <time>2019-01-17T10:44:00Z</time>
      </trkpt>
      <trkpt lat="44.1577" lon="5.0462">
        <ele>279.1</ele>
        <time>2019-01-17T10:44:11Z</time>
      </trkpt>
      <trkpt lat="44.1578" lon="5.04611">
        <ele>277.5</ele>
        <time>2019-01-17T10:44:20Z</time>
      </trkpt>
      <trkpt lat="44.15787" lon="5.04602">
        <ele>275.8</ele>
        <time>2019-01-17T10:44:29Z</time>
      </trkpt>
      <trkpt lat="44.15795" lon="5.04591">
        <ele>273.8</ele>
        <time>2019-01-17T10:44:39Z</time>
      </trkpt>
      <trkpt lat="44.15805" lon="5.04583">
        <ele>272.9</ele>
        <time>2019-01-17T10:44:49Z</time>
      </trkpt>
      <trkpt lat="44.15817" lon="5.04577">
        <ele>273.4</ele>
        <time>2019-01-17T10:45:00Z</time>
      </trkpt>
      <trkpt lat="44.15827" lon="5.04575">
        <ele>274.2</ele>
        <time>2019-01-17T10:45:11Z</time>
      </trkpt>
      <trkpt lat="44.1584" lon="5.04572">
        <ele>274.1</ele>
        <time>2019-01-17T10:45:22Z</time>
      </trkpt>
      <trkpt lat="44.15853" lon="5.04573">
        <ele>273.6</ele>
        <time>2019-01-17T10:45:34Z</time>
      </trkpt>
      <trkpt lat="44.15866" lon="5.04573">
        <ele>273</ele>
        <time>2019-01-17T10:45:46Z</time>
      </trkpt>
      <trkpt lat="44.15878" lon="5.04572">
        <ele>272.3</ele>
        <time>2019-01-17T10:45:56Z</time>
      </trkpt>
      <trkpt lat="44.15889" lon="5.04572">
        <ele>271.8</ele>
        <time>2019-01-17T10:46:06Z</time>
      </trkpt>
      <trkpt lat="44.159" lon="5.04568">
        <ele>271.1</ele>
        <time>2019-01-17T10:46:14Z</time>
      </trkpt>
      <trkpt lat="44.15908" lon="5.04561">
        <ele>270.5</ele>
        <time>2019-01-17T10:46:22Z</time>
      </trkpt>
      <trkpt lat="44.15915" lon="5.04548">
        <ele>269.8</ele>
        <time>2019-01-17T10:46:31Z</time>
      </trkpt>
      <trkpt lat="44.1592" lon="5.04535">
        <ele>269.2</ele>
        <time>2019-01-17T10:46:40Z</time>
      </trkpt>
      <trkpt lat="44.15922" lon="5.04521">
        <ele>268.7</ele>
        <time>2019-01-17T10:46:49Z</time>
      </trkpt>
      <trkpt lat="44.1592" lon="5.04507">
        <ele>268.2</ele>
        <time>2019-01-17T10:46:58Z</time>
      </trkpt>
      <trkpt lat="44.15921" lon="5.0449">
        <ele>267.4</ele>
        <time>2019-01-17T10:47:08Z</time>
      </trkpt>
      <trkpt lat="44.15928" lon="5.04477">
        <ele>266.7</ele>
        <time>2019-01-17T10:47:19Z</time>
      </trkpt>
      <trkpt lat="44.15935" lon="5.04466">
        <ele>266.3</ele>
        <time>2019-01-17T10:47:28Z</time>
      </trkpt>
      <trkpt lat="44.15944" lon="5.04456">
        <ele>266.1</ele>
        <time>2019-01-17T10:47:38Z</time>
      </trkpt>
      <trkpt lat="44.15954" lon="5.0445">
        <ele>266.2</ele>
        <time>2019-01-17T10:47:47Z</time>
      </trkpt>
      <trkpt lat="44.15963" lon="5.04443">
        <ele>266.3</ele>
        <time>2019-01-17T10:47:57Z</time>
      </trkpt>
      <trkpt lat="44.15966" lon="5.0443">
        <ele>266.2</ele>
        <time>2019-01-17T10:48:07Z</time>
      </trkpt>
      <trkpt lat="44.1596" lon="5.04418">
        <ele>265.6</ele>
        <time>2019-01-17T10:48:19Z</time>
      </trkpt>
      <trkpt lat="44.15952" lon="5.0441">
        <ele>265.1</ele>
        <time>2019-01-17T10:48:33Z</time>
      </trkpt>
      <trkpt lat="44.15944" lon="5.04401">
        <ele>264.7</ele>
        <time>2019-01-17T10:48:43Z</time>
      </trkpt>
      <trkpt lat="44.15936" lon="5.04391">
        <ele>264.3</ele>
        <time>2019-01-17T10:48:52Z</time>
      </trkpt>
      <trkpt lat="44.15927" lon="5.0438">
        <ele>264</ele>
        <time>2019-01-17T10:49:01Z</time>
      </trkpt>
      <trkpt lat="44.15919" lon="5.0437">
        <ele>263.7</ele>
        <time>2019-01-17T10:49:10Z</time>
      </trkpt>
      <trkpt lat="44.15912" lon="5.04362">
        <ele>264.4</ele>
        <time>2019-01-17T10:49:19Z</time>
      </trkpt>
      <trkpt lat="44.15905" lon="5.0435">
        <ele>265.9</ele>
        <time>2019-01-17T10:49:32Z</time>
      </trkpt>
      <trkpt lat="44.15894" lon="5.04346">
        <ele>268.2</ele>
        <time>2019-01-17T10:49:43Z</time>
      </trkpt>
      <trkpt lat="44.15883" lon="5.04344">
        <ele>270.4</ele>
        <time>2019-01-17T10:49:53Z</time>
      </trkpt>
      <trkpt lat="44.15885" lon="5.04332">
        <ele>271.1</ele>
        <time>2019-01-17T10:50:04Z</time>
      </trkpt>
      <trkpt lat="44.15892" lon="5.04323">
        <ele>271.7</ele>
        <time>2019-01-17T10:50:18Z</time>
      </trkpt>
      <trkpt lat="44.15901" lon="5.04316">
        <ele>271.5</ele>
        <time>2019-01-17T10:50:32Z</time>
      </trkpt>
      <trkpt lat="44.15911" lon="5.04313">
        <ele>270.2</ele>
        <time>2019-01-17T10:53:53Z</time>
      </trkpt>
      <trkpt lat="44.15909" lon="5.04302">
        <ele>273.3</ele>
        <time>2019-01-17T10:54:32Z</time>
      </trkpt>
      <trkpt lat="44.15899" lon="5.04293">
        <ele>277.3</ele>
        <time>2019-01-17T10:54:52Z</time>
      </trkpt>
      <trkpt lat="44.15887" lon="5.04292">
        <ele>279.6</ele>
        <time>2019-01-17T10:55:08Z</time>
      </trkpt>
      <trkpt lat="44.15887" lon="5.04281">
        <ele>282</ele>
        <time>2019-01-17T10:55:27Z</time>
      </trkpt>
      <trkpt lat="44.15885" lon="5.0427">
        <ele>284.8</ele>
        <time>2019-01-17T10:55:46Z</time>
      </trkpt>
      <trkpt lat="44.15872" lon="5.04267">
        <ele>287.4</ele>
        <time>2019-01-17T10:56:05Z</time>
      </trkpt>
      <trkpt lat="44.15861" lon="5.04276">
        <ele>287.3</ele>
        <time>2019-01-17T10:56:28Z</time>
      </trkpt>
      <trkpt lat="44.15851" lon="5.04286">
        <ele>287</ele>
        <time>2019-01-17T10:56:47Z</time>
      </trkpt>
      <trkpt lat="44.15841" lon="5.04295">
        <ele>287.1</ele>
        <time>2019-01-17T10:57:09Z</time>
      </trkpt>
      <trkpt lat="44.15829" lon="5.04299">
        <ele>288.4</ele>
        <time>2019-01-17T10:57:25Z</time>
      </trkpt>
      <trkpt lat="44.15817" lon="5.04304">
        <ele>289.3</ele>
        <time>2019-01-17T10:57:41Z</time>
      </trkpt>
      <trkpt lat="44.15805" lon="5.04299">
        <ele>291.9</ele>
        <time>2019-01-17T10:57:59Z</time>
      </trkpt>
      <trkpt lat="44.15795" lon="5.04294">
        <ele>294.2</ele>
        <time>2019-01-17T10:58:15Z</time>
      </trkpt>
      <trkpt lat="44.15785" lon="5.04286">
        <ele>296.8</ele>
        <time>2019-01-17T10:58:34Z</time>
      </trkpt>
      <trkpt lat="44.15787" lon="5.04273">
        <ele>298.6</ele>
        <time>2019-01-17T10:58:52Z</time>
      </trkpt>
      <trkpt lat="44.15792" lon="5.0426">
        <ele>299.9</ele>
        <time>2019-01-17T10:59:11Z</time>
      </trkpt>
      <trkpt lat="44.15795" lon="5.04245">
        <ele>302.1</ele>
        <time>2019-01-17T10:59:28Z</time>
      </trkpt>
      <trkpt lat="44.15796" lon="5.0423">
        <ele>305.2</ele>
        <time>2019-01-17T10:59:43Z</time>
      </trkpt>
      <trkpt lat="44.15797" lon="5.04218">
        <ele>307.6</ele>
        <time>2019-01-17T10:59:56Z</time>
      </trkpt>
      <trkpt lat="44.15801" lon="5.04206">
        <ele>309.8</ele>
        <time>2019-01-17T11:00:11Z</time>
      </trkpt>
      <trkpt lat="44.158" lon="5.04193">
        <ele>312.7</ele>
        <time>2019-01-17T11:00:29Z</time>
      </trkpt>
      <trkpt lat="44.15797" lon="5.04178">
        <ele>316.2</ele>
        <time>2019-01-17T11:00:46Z</time>
      </trkpt>
      <trkpt lat="44.1579" lon="5.0417">
        <ele>318.4</ele>
        <time>2019-01-17T11:01:10Z</time>
      </trkpt>
      <trkpt lat="44.15779" lon="5.04159">
        <ele>321.9</ele>
        <time>2019-01-17T11:01:29Z</time>
      </trkpt>
      <trkpt lat="44.1577" lon="5.04145">
        <ele>325.9</ele>
        <time>2019-01-17T11:01:53Z</time>
      </trkpt>
      <trkpt lat="44.15762" lon="5.04131">
        <ele>329.5</ele>
        <time>2019-01-17T11:02:23Z</time>
      </trkpt>
      <trkpt lat="44.15757" lon="5.04114">
        <ele>333.5</ele>
        <time>2019-01-17T11:02:42Z</time>
      </trkpt>
      <trkpt lat="44.15751" lon="5.04099">
        <ele>336.7</ele>
        <time>2019-01-17T11:03:09Z</time>
      </trkpt>
      <trkpt lat="44.15749" lon="5.04083">
        <ele>339.8</ele>
        <time>2019-01-17T11:03:27Z</time>
      </trkpt>
      <trkpt lat="44.1575" lon="5.04066">
        <ele>343.7</ele>
        <time>2019-01-17T11:03:46Z</time>
      </trkpt>
      <trkpt lat="44.1575" lon="5.04047">
        <ele>347.8</ele>
        <time>2019-01-17T11:04:00Z</time>
      </trkpt>
      <trkpt lat="44.15746" lon="5.04029">
        <ele>350.7</ele>
        <time>2019-01-17T11:04:15Z</time>
      </trkpt>
      <trkpt lat="44.15749" lon="5.04015">
        <ele>354.5</ele>
        <time>2019-01-17T11:04:34Z</time>
      </trkpt>
      <trkpt lat="44.15753" lon="5.04003">
        <ele>357.6</ele>
        <time>2019-01-17T11:05:02Z</time>
      </trkpt>
      <trkpt lat="44.15756" lon="5.03991">
        <ele>360.6</ele>
        <time>2019-01-17T11:05:30Z</time>
      </trkpt>
      <trkpt lat="44.1576" lon="5.03981">
        <ele>363.4</ele>
        <time>2019-01-17T11:05:55Z</time>
      </trkpt>
      <trkpt lat="44.15764" lon="5.03967">
        <ele>367.3</ele>
        <time>2019-01-17T11:06:30Z</time>
      </trkpt>
      <trkpt lat="44.15765" lon="5.03957">
        <ele>369.9</ele>
        <time>2019-01-17T11:07:02Z</time>
      </trkpt>
      <trkpt lat="44.15774" lon="5.03943">
        <ele>375.2</ele>
        <time>2019-01-17T11:07:38Z</time>
      </trkpt>
      <trkpt lat="44.15778" lon="5.03932">
        <ele>378.9</ele>
        <time>2019-01-17T11:08:10Z</time>
      </trkpt>
      <trkpt lat="44.15777" lon="5.03918">
        <ele>382.4</ele>
        <time>2019-01-17T11:08:50Z</time>
      </trkpt>
      <trkpt lat="44.15783" lon="5.03907">
        <ele>387.2</ele>
        <time>2019-01-17T11:09:14Z</time>
      </trkpt>
      <trkpt lat="44.15786" lon="5.03896">
        <ele>391.3</ele>
        <time>2019-01-17T11:10:03Z</time>
      </trkpt>
      <trkpt lat="44.15788" lon="5.03883">
        <ele>395.8</ele>
        <time>2019-01-17T11:10:26Z</time>
      </trkpt>
      <trkpt lat="44.15786" lon="5.03872">
        <ele>398.6</ele>
        <time>2019-01-17T11:10:43Z</time>
      </trkpt>
      <trkpt lat="44.1579" lon="5.03867">
        <ele>401.2</ele>
        <time>2019-01-17T11:11:08Z</time>
      </trkpt>
      <trkpt lat="44.15794" lon="5.0386">
        <ele>404.5</ele>
        <time>2019-01-17T11:11:34Z</time>
      </trkpt>
      <trkpt lat="44.158" lon="5.03852">
        <ele>408.8</ele>
        <time>2019-01-17T11:12:01Z</time>
      </trkpt>
      <trkpt lat="44.15803" lon="5.03844">
        <ele>412.2</ele>
        <time>2019-01-17T11:12:37Z</time>
      </trkpt>
      <trkpt lat="44.15808" lon="5.03831">
        <ele>417.9</ele>
        <time>2019-01-17T11:13:14Z</time>
      </trkpt>
      <trkpt lat="44.1581" lon="5.03817">
        <ele>423.5</ele>
        <time>2019-01-17T11:13:47Z</time>
      </trkpt>
      <trkpt lat="44.15809" lon="5.03806">
        <ele>427.1</ele>
        <time>2019-01-17T11:14:19Z</time>
      </trkpt>
      <trkpt lat="44.15812" lon="5.03797">
        <ele>431.3</ele>
        <time>2019-01-17T11:14:48Z</time>
      </trkpt>
      <trkpt lat="44.15819" lon="5.03789">
        <ele>436.6</ele>
        <time>2019-01-17T11:15:19Z</time>
      </trkpt>
      <trkpt lat="44.15825" lon="5.03792">
        <ele>437.5</ele>
        <time>2019-01-17T11:15:46Z</time>
      </trkpt>
      <trkpt lat="44.1583" lon="5.03788">
        <ele>440.7</ele>
        <time>2019-01-17T11:16:23Z</time>
      </trkpt>
      <trkpt lat="44.15835" lon="5.0378">
        <ele>445.2</ele>
        <time>2019-01-17T11:16:55Z</time>
      </trkpt>
      <trkpt lat="44.1584" lon="5.03783">
        <ele>445.1</ele>
        <time>2019-01-17T11:17:29Z</time>
      </trkpt>
      <trkpt lat="44.15844" lon="5.03787">
        <ele>444.5</ele>
        <time>2019-01-17T11:19:37Z</time>
      </trkpt>
      <trkpt lat="44.1585" lon="5.03791">
        <ele>444.2</ele>
        <time>2019-01-17T11:22:30Z</time>
      </trkpt>
      <trkpt lat="44.15859" lon="5.03799">
        <ele>443.2</ele>
        <time>2019-01-17T11:23:02Z</time>
      </trkpt>
      <trkpt lat="44.15867" lon="5.03804">
        <ele>443</ele>
        <time>2019-01-17T11:23:19Z</time>
      </trkpt>
      <trkpt lat="44.15876" lon="5.03812">
        <ele>442</ele>
        <time>2019-01-17T11:23:37Z</time>
      </trkpt>
      <trkpt lat="44.15881" lon="5.03817">
        <ele>441.3</ele>
        <time>2019-01-17T11:24:52Z</time>
      </trkpt>
      <trkpt lat="44.15886" lon="5.03814">
        <ele>443.4</ele>
        <time>2019-01-17T11:25:42Z</time>
      </trkpt>
      <trkpt lat="44.15894" lon="5.03818">
        <ele>443.7</ele>
        <time>2019-01-17T11:26:02Z</time>
      </trkpt>
      <trkpt lat="44.159" lon="5.03824">
        <ele>442.8</ele>
        <time>2019-01-17T11:26:31Z</time>
      </trkpt>
      <trkpt lat="44.15905" lon="5.03828">
        <ele>442.4</ele>
        <time>2019-01-17T11:27:04Z</time>
      </trkpt>
      <trkpt lat="44.15906" lon="5.0382">
        <ele>445.5</ele>
        <time>2019-01-17T11:27:24Z</time>
      </trkpt>
      <trkpt lat="44.15906" lon="5.03811">
        <ele>448.8</ele>
        <time>2019-01-17T11:28:34Z</time>
      </trkpt>
      <trkpt lat="44.15905" lon="5.03804">
        <ele>451.1</ele>
        <time>2019-01-17T11:29:01Z</time>
      </trkpt>
      <trkpt lat="44.15905" lon="5.03798">
        <ele>453.3</ele>
        <time>2019-01-17T11:29:22Z</time>
      </trkpt>
      <trkpt lat="44.15908" lon="5.03795">
        <ele>455</ele>
        <time>2019-01-17T11:29:57Z</time>
      </trkpt>
      <trkpt lat="44.15908" lon="5.03787">
        <ele>457.9</ele>
        <time>2019-01-17T11:30:35Z</time>
      </trkpt>
      <trkpt lat="44.15907" lon="5.03779">
        <ele>460.5</ele>
        <time>2019-01-17T11:31:15Z</time>
      </trkpt>
      <trkpt lat="44.15907" lon="5.03772">
        <ele>463.1</ele>
        <time>2019-01-17T11:31:40Z</time>
      </trkpt>
      <trkpt lat="44.15909" lon="5.03762">
        <ele>467.1</ele>
        <time>2019-01-17T11:32:02Z</time>
      </trkpt>
      <trkpt lat="44.15905" lon="5.0375">
        <ele>470.6</ele>
        <time>2019-01-17T11:32:18Z</time>
      </trkpt>
      <trkpt lat="44.15903" lon="5.03743">
        <ele>470.5</ele>
        <time>2019-01-17T11:32:41Z</time>
      </trkpt>
      <trkpt lat="44.15901" lon="5.03735">
        <ele>470.5</ele>
        <time>2019-01-17T11:33:02Z</time>
      </trkpt>
      <trkpt lat="44.15898" lon="5.03727">
        <ele>470.5</ele>
        <time>2019-01-17T11:33:43Z</time>
      </trkpt>
      <trkpt lat="44.15898" lon="5.03719">
        <ele>470.9</ele>
        <time>2019-01-17T11:34:48Z</time>
      </trkpt>
      <trkpt lat="44.15897" lon="5.03706">
        <ele>471.7</ele>
        <time>2019-01-17T11:35:02Z</time>
      </trkpt>
      <trkpt lat="44.15897" lon="5.03691">
        <ele>472.6</ele>
        <time>2019-01-17T11:35:19Z</time>
      </trkpt>
      <trkpt lat="44.15898" lon="5.03682">
        <ele>473</ele>
        <time>2019-01-17T11:36:09Z</time>
      </trkpt>
      <trkpt lat="44.15896" lon="5.03677">
        <ele>473.5</ele>
        <time>2019-01-17T11:37:43Z</time>
      </trkpt>
      <trkpt lat="44.15895" lon="5.03671">
        <ele>474.1</ele>
        <time>2019-01-17T11:37:58Z</time>
      </trkpt>
      <trkpt lat="44.15888" lon="5.03654">
        <ele>474.5</ele>
        <time>2019-01-17T11:38:13Z</time>
      </trkpt>
      <trkpt lat="44.15881" lon="5.03643">
        <ele>475.7</ele>
        <time>2019-01-17T11:38:27Z</time>
      </trkpt>
      <trkpt lat="44.15878" lon="5.03631">
        <ele>476.4</ele>
        <time>2019-01-17T11:38:55Z</time>
      </trkpt>
      <trkpt lat="44.1587" lon="5.03628">
        <ele>479.4</ele>
        <time>2019-01-17T11:39:29Z</time>
      </trkpt>
      <trkpt lat="44.15867" lon="5.03616">
        <ele>481.2</ele>
        <time>2019-01-17T11:40:02Z</time>
      </trkpt>
      <trkpt lat="44.15861" lon="5.03605">
        <ele>484.9</ele>
        <time>2019-01-17T11:40:30Z</time>
      </trkpt>
      <trkpt lat="44.15853" lon="5.03594">
        <ele>490.6</ele>
        <time>2019-01-17T11:40:52Z</time>
      </trkpt>
      <trkpt lat="44.15848" lon="5.03584">
        <ele>495.2</ele>
        <time>2019-01-17T11:41:20Z</time>
      </trkpt>
      <trkpt lat="44.15848" lon="5.0358">
        <ele>494.7</ele>
        <time>2019-01-17T11:44:48Z</time>
      </trkpt>
      <trkpt lat="44.15843" lon="5.0357">
        <ele>496.3</ele>
        <time>2019-01-17T11:45:02Z</time>
      </trkpt>
      <trkpt lat="44.15837" lon="5.03566">
        <ele>499.6</ele>
        <time>2019-01-17T11:45:21Z</time>
      </trkpt>
      <trkpt lat="44.1583" lon="5.03556">
        <ele>500.2</ele>
        <time>2019-01-17T11:45:45Z</time>
      </trkpt>
      <trkpt lat="44.15825" lon="5.03543">
        <ele>498.3</ele>
        <time>2019-01-17T11:46:03Z</time>
      </trkpt>
      <trkpt lat="44.15821" lon="5.03533">
        <ele>497.4</ele>
        <time>2019-01-17T11:46:36Z</time>
      </trkpt>
      <trkpt lat="44.15818" lon="5.03528">
        <ele>497.2</ele>
        <time>2019-01-17T11:47:18Z</time>
      </trkpt>
      <trkpt lat="44.15816" lon="5.03519">
        <ele>496.7</ele>
        <time>2019-01-17T11:47:39Z</time>
      </trkpt>
      <trkpt lat="44.15813" lon="5.03506">
        <ele>496.4</ele>
        <time>2019-01-17T11:48:23Z</time>
      </trkpt>
      <trkpt lat="44.15808" lon="5.03494">
        <ele>496.8</ele>
        <time>2019-01-17T11:48:49Z</time>
      </trkpt>
      <trkpt lat="44.15799" lon="5.03479">
        <ele>498.9</ele>
        <time>2019-01-17T11:49:12Z</time>
      </trkpt>
      <trkpt lat="44.15789" lon="5.03471">
        <ele>502.8</ele>
        <time>2019-01-17T11:49:38Z</time>
      </trkpt>
      <trkpt lat="44.15783" lon="5.03469">
        <ele>505.5</ele>
        <time>2019-01-17T11:50:16Z</time>
      </trkpt>
      <trkpt lat="44.15795" lon="5.03452">
        <ele>500</ele>
        <time>2019-01-17T11:50:47Z</time>
      </trkpt>
      <trkpt lat="44.15786" lon="5.0345">
        <ele>504.9</ele>
        <time>2019-01-17T11:51:10Z</time>
      </trkpt>
      <trkpt lat="44.15789" lon="5.03444">
        <ele>503.4</ele>
        <time>2019-01-17T11:51:28Z</time>
      </trkpt>
      <trkpt lat="44.15779" lon="5.03447">
        <ele>509</ele>
        <time>2019-01-17T11:52:31Z</time>
      </trkpt>
      <trkpt lat="44.15774" lon="5.03443">
        <ele>512.2</ele>
        <time>2019-01-17T11:53:15Z</time>
      </trkpt>
      <trkpt lat="44.15768" lon="5.03439">
        <ele>516.4</ele>
        <time>2019-01-17T11:53:40Z</time>
      </trkpt>
      <trkpt lat="44.15764" lon="5.03436">
        <ele>519.3</ele>
        <time>2019-01-17T11:54:03Z</time>
      </trkpt>
      <trkpt lat="44.1576" lon="5.03431">
        <ele>522.8</ele>
        <time>2019-01-17T11:54:41Z</time>
      </trkpt>
      <trkpt lat="44.15752" lon="5.03425">
        <ele>529.5</ele>
        <time>2019-01-17T11:54:57Z</time>
      </trkpt>
      <trkpt lat="44.15745" lon="5.03414">
        <ele>531.2</ele>
        <time>2019-01-17T11:55:09Z</time>
      </trkpt>
      <trkpt lat="44.15744" lon="5.03401">
        <ele>529.8</ele>
        <time>2019-01-17T11:55:26Z</time>
      </trkpt>
      <trkpt lat="44.15748" lon="5.03397">
        <ele>530.5</ele>
        <time>2019-01-17T11:56:04Z</time>
      </trkpt>
      <trkpt lat="44.15751" lon="5.03399">
        <ele>530.5</ele>
        <time>2019-01-17T11:56:54Z</time>
      </trkpt>
      <trkpt lat="44.15758" lon="5.03399">
        <ele>525.3</ele>
        <time>2019-01-17T11:57:24Z</time>
      </trkpt>
      <trkpt lat="44.15759" lon="5.03399">
        <ele>524.5</ele>
        <time>2019-01-17T11:58:05Z</time>
      </trkpt>
      <trkpt lat="44.15763" lon="5.03401">
        <ele>521.7</ele>
        <time>2019-01-17T11:58:22Z</time>
      </trkpt>
      <trkpt lat="44.15765" lon="5.03401">
        <ele>520.2</ele>
        <time>2019-01-17T11:59:17Z</time>
      </trkpt>
      <trkpt lat="44.15765" lon="5.03404">
        <ele>520.5</ele>
        <time>2019-01-17T12:40:43Z</time>
      </trkpt>
      <trkpt lat="44.15764" lon="5.034">
        <ele>520.8</ele>
        <time>2019-01-17T12:48:19Z</time>
      </trkpt>
      <trkpt lat="44.15753" lon="5.03397">
        <ele>528.8</ele>
        <time>2019-01-17T12:48:31Z</time>
      </trkpt>
      <trkpt lat="44.15746" lon="5.03392">
        <ele>529.5</ele>
        <time>2019-01-17T12:48:45Z</time>
      </trkpt>
      <trkpt lat="44.15748" lon="5.03391">
        <ele>530</ele>
        <time>2019-01-17T12:53:31Z</time>
      </trkpt>
      <trkpt lat="44.15749" lon="5.0338">
        <ele>529.2</ele>
        <time>2019-01-17T12:53:47Z</time>
      </trkpt>
      <trkpt lat="44.15747" lon="5.03365">
        <ele>527.3</ele>
        <time>2019-01-17T12:53:58Z</time>
      </trkpt>
      <trkpt lat="44.15745" lon="5.03358">
        <ele>526.2</ele>
        <time>2019-01-17T12:54:59Z</time>
      </trkpt>
      <trkpt lat="44.15746" lon="5.03343">
        <ele>525.1</ele>
        <time>2019-01-17T12:55:21Z</time>
      </trkpt>
      <trkpt lat="44.15744" lon="5.03328">
        <ele>523.5</ele>
        <time>2019-01-17T12:56:03Z</time>
      </trkpt>
      <trkpt lat="44.15742" lon="5.03315">
        <ele>522.3</ele>
        <time>2019-01-17T12:56:48Z</time>
      </trkpt>
      <trkpt lat="44.15739" lon="5.03304">
        <ele>521.4</ele>
        <time>2019-01-17T12:57:03Z</time>
      </trkpt>
      <trkpt lat="44.15735" lon="5.03288">
        <ele>520.6</ele>
        <time>2019-01-17T12:57:32Z</time>
      </trkpt>
      <trkpt lat="44.15728" lon="5.03272">
        <ele>520.5</ele>
        <time>2019-01-17T12:57:55Z</time>
      </trkpt>
      <trkpt lat="44.15721" lon="5.0326">
        <ele>521.3</ele>
        <time>2019-01-17T12:58:13Z</time>
      </trkpt>
      <trkpt lat="44.15717" lon="5.03245">
        <ele>521.9</ele>
        <time>2019-01-17T12:58:57Z</time>
      </trkpt>
      <trkpt lat="44.15711" lon="5.03232">
        <ele>522.6</ele>
        <time>2019-01-17T12:59:27Z</time>
      </trkpt>
      <trkpt lat="44.15705" lon="5.03228">
        <ele>523.9</ele>
        <time>2019-01-17T13:01:16Z</time>
      </trkpt>
      <trkpt lat="44.15696" lon="5.03215">
        <ele>526.6</ele>
        <time>2019-01-17T13:01:31Z</time>
      </trkpt>
      <trkpt lat="44.15689" lon="5.03206">
        <ele>529.3</ele>
        <time>2019-01-17T13:01:49Z</time>
      </trkpt>
      <trkpt lat="44.15682" lon="5.03198">
        <ele>532.4</ele>
        <time>2019-01-17T13:04:55Z</time>
      </trkpt>
      <trkpt lat="44.1568" lon="5.03195">
        <ele>533.4</ele>
        <time>2019-01-17T13:06:58Z</time>
      </trkpt>
      <trkpt lat="44.15679" lon="5.03186">
        <ele>534.8</ele>
        <time>2019-01-17T13:07:35Z</time>
      </trkpt>
      <trkpt lat="44.15667" lon="5.03191">
        <ele>539.1</ele>
        <time>2019-01-17T13:08:55Z</time>
      </trkpt>
      <trkpt lat="44.15665" lon="5.0319">
        <ele>538.4</ele>
        <time>2019-01-17T13:09:40Z</time>
      </trkpt>
      <trkpt lat="44.15662" lon="5.0318">
        <ele>538.4</ele>
        <time>2019-01-17T13:10:21Z</time>
      </trkpt>
      <trkpt lat="44.15658" lon="5.03161">
        <ele>538</ele>
        <time>2019-01-17T13:10:53Z</time>
      </trkpt>
      <trkpt lat="44.15654" lon="5.03141">
        <ele>534.9</ele>
        <time>2019-01-17T13:11:15Z</time>
      </trkpt>
      <trkpt lat="44.15648" lon="5.03127">
        <ele>531.5</ele>
        <time>2019-01-17T13:11:36Z</time>
      </trkpt>
      <trkpt lat="44.15647" lon="5.0311">
        <ele>530.4</ele>
        <time>2019-01-17T13:13:04Z</time>
      </trkpt>
      <trkpt lat="44.15652" lon="5.03104">
        <ele>532.3</ele>
        <time>2019-01-17T13:13:47Z</time>
      </trkpt>
      <trkpt lat="44.15652" lon="5.03095">
        <ele>531.9</ele>
        <time>2019-01-17T13:14:28Z</time>
      </trkpt>
      <trkpt lat="44.15642" lon="5.03084">
        <ele>527.5</ele>
        <time>2019-01-17T13:15:11Z</time>
      </trkpt>
      <trkpt lat="44.15637" lon="5.03069">
        <ele>524.2</ele>
        <time>2019-01-17T13:15:48Z</time>
      </trkpt>
      <trkpt lat="44.15636" lon="5.03056">
        <ele>522.7</ele>
        <time>2019-01-17T13:16:57Z</time>
      </trkpt>
      <trkpt lat="44.15638" lon="5.03037">
        <ele>521.2</ele>
        <time>2019-01-17T13:18:15Z</time>
      </trkpt>
      <trkpt lat="44.15637" lon="5.03029">
        <ele>520.3</ele>
        <time>2019-01-17T13:19:59Z</time>
      </trkpt>
      <trkpt lat="44.15628" lon="5.03019">
        <ele>518.8</ele>
        <time>2019-01-17T13:20:33Z</time>
      </trkpt>
      <trkpt lat="44.15621" lon="5.03006">
        <ele>518.3</ele>
        <time>2019-01-17T13:20:57Z</time>
      </trkpt>
      <trkpt lat="44.15616" lon="5.02992">
        <ele>518.8</ele>
        <time>2019-01-17T13:21:19Z</time>
      </trkpt>
      <trkpt lat="44.15615" lon="5.02983">
        <ele>519.3</ele>
        <time>2019-01-17T13:23:19Z</time>
      </trkpt>
      <trkpt lat="44.15614" lon="5.0297">
        <ele>520.1</ele>
        <time>2019-01-17T13:24:12Z</time>
      </trkpt>
      <trkpt lat="44.1561" lon="5.02956">
        <ele>521.7</ele>
        <time>2019-01-17T13:25:00Z</time>
      </trkpt>
      <trkpt lat="44.15602" lon="5.02949">
        <ele>524.1</ele>
        <time>2019-01-17T13:25:52Z</time>
      </trkpt>
      <trkpt lat="44.15595" lon="5.02934">
        <ele>527.6</ele>
        <time>2019-01-17T13:26:23Z</time>
      </trkpt>
      <trkpt lat="44.15589" lon="5.02921">
        <ele>531.3</ele>
        <time>2019-01-17T13:27:15Z</time>
      </trkpt>
      <trkpt lat="44.15589" lon="5.02903">
        <ele>532</ele>
        <time>2019-01-17T13:28:41Z</time>
      </trkpt>
      <trkpt lat="44.15585" lon="5.02888">
        <ele>533.6</ele>
        <time>2019-01-17T13:29:15Z</time>
      </trkpt>
      <trkpt lat="44.15583" lon="5.02875">
        <ele>534.3</ele>
        <time>2019-01-17T13:29:49Z</time>
      </trkpt>
      <trkpt lat="44.15581" lon="5.02854">
        <ele>533.5</ele>
        <time>2019-01-17T13:31:08Z</time>
      </trkpt>
      <trkpt lat="44.15576" lon="5.02837">
        <ele>531.2</ele>
        <time>2019-01-17T13:31:39Z</time>
      </trkpt>
      <trkpt lat="44.15574" lon="5.02807">
        <ele>531.2</ele>
        <time>2019-01-17T13:32:13Z</time>
      </trkpt>
      <trkpt lat="44.15569" lon="5.02782">
        <ele>530</ele>
        <time>2019-01-17T13:32:35Z</time>
      </trkpt>
      <trkpt lat="44.15567" lon="5.02755">
        <ele>530.3</ele>
        <time>2019-01-17T13:33:49Z</time>
      </trkpt>
      <trkpt lat="44.15573" lon="5.02755">
        <ele>532.7</ele>
        <time>2019-01-17T13:35:07Z</time>
      </trkpt>
      <trkpt lat="44.15572" lon="5.02743">
        <ele>534</ele>
        <time>2019-01-17T13:35:45Z</time>
      </trkpt>
      <trkpt lat="44.15572" lon="5.02726">
        <ele>537.6</ele>
        <time>2019-01-17T13:36:19Z</time>
      </trkpt>
      <trkpt lat="44.15575" lon="5.02712">
        <ele>541.8</ele>
        <time>2019-01-17T13:36:59Z</time>
      </trkpt>
      <trkpt lat="44.1558" lon="5.02696">
        <ele>547.3</ele>
        <time>2019-01-17T13:37:39Z</time>
      </trkpt>
      <trkpt lat="44.15588" lon="5.02685">
        <ele>547.5</ele>
        <time>2019-01-17T13:39:06Z</time>
      </trkpt>
      <trkpt lat="44.15586" lon="5.02669">
        <ele>552.4</ele>
        <time>2019-01-17T13:40:10Z</time>
      </trkpt>
      <trkpt lat="44.15589" lon="5.02672">
        <ele>549.4</ele>
        <time>2019-01-17T13:41:47Z</time>
      </trkpt>
      <trkpt lat="44.15583" lon="5.02668">
        <ele>554.6</ele>
        <time>2019-01-17T13:42:35Z</time>
      </trkpt>
      <trkpt lat="44.1558" lon="5.02674">
        <ele>552</ele>
        <time>2019-01-17T13:44:14Z</time>
      </trkpt>
      <trkpt lat="44.15581" lon="5.0266">
        <ele>554.7</ele>
        <time>2019-01-17T13:44:42Z</time>
      </trkpt>
      <trkpt lat="44.1558" lon="5.02649">
        <ele>555.4</ele>
        <time>2019-01-17T13:45:12Z</time>
      </trkpt>
      <trkpt lat="44.1558" lon="5.02636">
        <ele>556.8</ele>
        <time>2019-01-17T13:45:36Z</time>
      </trkpt>
      <trkpt lat="44.15576" lon="5.02621">
        <ele>557.1</ele>
        <time>2019-01-17T13:46:08Z</time>
      </trkpt>
      <trkpt lat="44.15571" lon="5.026">
        <ele>558.1</ele>
        <time>2019-01-17T13:46:28Z</time>
      </trkpt>
      <trkpt lat="44.15569" lon="5.02585">
        <ele>559.5</ele>
        <time>2019-01-17T13:47:04Z</time>
      </trkpt>
      <trkpt lat="44.15562" lon="5.02562">
        <ele>556.8</ele>
        <time>2019-01-17T13:47:30Z</time>
      </trkpt>
      <trkpt lat="44.15558" lon="5.02549">
        <ele>555.6</ele>
        <time>2019-01-17T13:48:01Z</time>
      </trkpt>
      <trkpt lat="44.15554" lon="5.02527">
        <ele>554.3</ele>
        <time>2019-01-17T13:49:41Z</time>
      </trkpt>
      <trkpt lat="44.15551" lon="5.02511">
        <ele>553.8</ele>
        <time>2019-01-17T13:51:05Z</time>
      </trkpt>
      <trkpt lat="44.15548" lon="5.02489">
        <ele>553.2</ele>
        <time>2019-01-17T13:51:33Z</time>
      </trkpt>
      <trkpt lat="44.15541" lon="5.02462">
        <ele>553.2</ele>
        <time>2019-01-17T13:52:10Z</time>
      </trkpt>
      <trkpt lat="44.15538" lon="5.0244">
        <ele>553.4</ele>
        <time>2019-01-17T13:52:36Z</time>
      </trkpt>
      <trkpt lat="44.15533" lon="5.02418">
        <ele>554.5</ele>
        <time>2019-01-17T13:53:05Z</time>
      </trkpt>
      <trkpt lat="44.1553" lon="5.02405">
        <ele>555.8</ele>
        <time>2019-01-17T13:53:18Z</time>
      </trkpt>
      <trkpt lat="44.15524" lon="5.02396">
        <ele>558.1</ele>
        <time>2019-01-17T13:53:34Z</time>
      </trkpt>
      <trkpt lat="44.15522" lon="5.02385">
        <ele>559.3</ele>
        <time>2019-01-17T13:54:21Z</time>
      </trkpt>
      <trkpt lat="44.15522" lon="5.0237">
        <ele>560.1</ele>
        <time>2019-01-17T13:54:58Z</time>
      </trkpt>
      <trkpt lat="44.15523" lon="5.02356">
        <ele>560.5</ele>
        <time>2019-01-17T13:55:48Z</time>
      </trkpt>
      <trkpt lat="44.15525" lon="5.02332">
        <ele>560.6</ele>
        <time>2019-01-17T13:56:46Z</time>
      </trkpt>
      <trkpt lat="44.15522" lon="5.0231">
        <ele>558.1</ele>
        <time>2019-01-17T13:57:06Z</time>
      </trkpt>
      <trkpt lat="44.15522" lon="5.02291">
        <ele>554.9</ele>
        <time>2019-01-17T13:57:34Z</time>
      </trkpt>
      <trkpt lat="44.1552" lon="5.02273">
        <ele>552.8</ele>
        <time>2019-01-17T13:58:06Z</time>
      </trkpt>
      <trkpt lat="44.15515" lon="5.02255">
        <ele>552.2</ele>
        <time>2019-01-17T13:58:31Z</time>
      </trkpt>
      <trkpt lat="44.15507" lon="5.02223">
        <ele>554.8</ele>
        <time>2019-01-17T13:59:08Z</time>
      </trkpt>
      <trkpt lat="44.15498" lon="5.02208">
        <ele>557.6</ele>
        <time>2019-01-17T14:00:25Z</time>
      </trkpt>
      <trkpt lat="44.15497" lon="5.02191">
        <ele>557</ele>
        <time>2019-01-17T14:01:06Z</time>
      </trkpt>
      <trkpt lat="44.15493" lon="5.02166">
        <ele>555</ele>
        <time>2019-01-17T14:02:03Z</time>
      </trkpt>
      <trkpt lat="44.15476" lon="5.02142">
        <ele>545.6</ele>
        <time>2019-01-17T14:02:28Z</time>
      </trkpt>
      <trkpt lat="44.15475" lon="5.02124">
        <ele>543.5</ele>
        <time>2019-01-17T14:03:02Z</time>
      </trkpt>
      <trkpt lat="44.15463" lon="5.02111">
        <ele>538.6</ele>
        <time>2019-01-17T14:04:17Z</time>
      </trkpt>
      <trkpt lat="44.1546" lon="5.02099">
        <ele>536.9</ele>
        <time>2019-01-17T14:04:56Z</time>
      </trkpt>
      <trkpt lat="44.15452" lon="5.02085">
        <ele>534</ele>
        <time>2019-01-17T14:05:58Z</time>
      </trkpt>
      <trkpt lat="44.15449" lon="5.02063">
        <ele>532.7</ele>
        <time>2019-01-17T14:12:36Z</time>
      </trkpt>
      <trkpt lat="44.15448" lon="5.02048">
        <ele>532.1</ele>
        <time>2019-01-17T14:13:21Z</time>
      </trkpt>
      <trkpt lat="44.15449" lon="5.02037">
        <ele>532.1</ele>
        <time>2019-01-17T14:13:46Z</time>
      </trkpt>
      <trkpt lat="44.15444" lon="5.02019">
        <ele>530.6</ele>
        <time>2019-01-17T14:14:26Z</time>
      </trkpt>
      <trkpt lat="44.15437" lon="5.01998">
        <ele>528.8</ele>
        <time>2019-01-17T14:14:48Z</time>
      </trkpt>
      <trkpt lat="44.15435" lon="5.01986">
        <ele>528.1</ele>
        <time>2019-01-17T14:15:16Z</time>
      </trkpt>
      <trkpt lat="44.15432" lon="5.01962">
        <ele>526.7</ele>
        <time>2019-01-17T14:15:42Z</time>
      </trkpt>
      <trkpt lat="44.15436" lon="5.01949">
        <ele>527.2</ele>
        <time>2019-01-17T14:16:01Z</time>
      </trkpt>
      <trkpt lat="44.15441" lon="5.0194">
        <ele>527.9</ele>
        <time>2019-01-17T14:17:50Z</time>
      </trkpt>
      <trkpt lat="44.15437" lon="5.01932">
        <ele>526.9</ele>
        <time>2019-01-17T14:20:17Z</time>
      </trkpt>
      <trkpt lat="44.1544" lon="5.01921">
        <ele>527.2</ele>
        <time>2019-01-17T14:21:00Z</time>
      </trkpt>
      <trkpt lat="44.15441" lon="5.01905">
        <ele>527.6</ele>
        <time>2019-01-17T14:21:26Z</time>
      </trkpt>
      <trkpt lat="44.15443" lon="5.0189">
        <ele>528.4</ele>
        <time>2019-01-17T14:21:52Z</time>
      </trkpt>
      <trkpt lat="44.15448" lon="5.0188">
        <ele>529.5</ele>
        <time>2019-01-17T14:24:13Z</time>
      </trkpt>
      <trkpt lat="44.15454" lon="5.01872">
        <ele>530.8</ele>
        <time>2019-01-17T14:25:09Z</time>
      </trkpt>
      <trkpt lat="44.15454" lon="5.01864">
        <ele>530.9</ele>
        <time>2019-01-17T14:26:13Z</time>
      </trkpt>
      <trkpt lat="44.15456" lon="5.0185">
        <ele>531.4</ele>
        <time>2019-01-17T14:26:31Z</time>
      </trkpt>
      <trkpt lat="44.15452" lon="5.01833">
        <ele>531.1</ele>
        <time>2019-01-17T14:26:48Z</time>
      </trkpt>
      <trkpt lat="44.15449" lon="5.01821">
        <ele>530.9</ele>
        <time>2019-01-17T14:27:08Z</time>
      </trkpt>
      <trkpt lat="44.15448" lon="5.01807">
        <ele>531.1</ele>
        <time>2019-01-17T14:27:49Z</time>
      </trkpt>
      <trkpt lat="44.15451" lon="5.01796">
        <ele>531.6</ele>
        <time>2019-01-17T14:28:21Z</time>
      </trkpt>
      <trkpt lat="44.15456" lon="5.0179">
        <ele>531.9</ele>
        <time>2019-01-17T14:29:06Z</time>
      </trkpt>
      <trkpt lat="44.15458" lon="5.01787">
        <ele>532</ele>
        <time>2019-01-17T14:33:17Z</time>
      </trkpt>
      <trkpt lat="44.15461" lon="5.01779">
        <ele>532.1</ele>
        <time>2019-01-17T14:33:50Z</time>
      </trkpt>
      <trkpt lat="44.15464" lon="5.01763">
        <ele>531.9</ele>
        <time>2019-01-17T14:34:17Z</time>
      </trkpt>
      <trkpt lat="44.15464" lon="5.01749">
        <ele>531.8</ele>
        <time>2019-01-17T14:34:33Z</time>
      </trkpt>
      <trkpt lat="44.15465" lon="5.01735">
        <ele>532.1</ele>
        <time>2019-01-17T14:34:46Z</time>
      </trkpt>
      <trkpt lat="44.15467" lon="5.01721">
        <ele>532.3</ele>
        <time>2019-01-17T14:35:04Z</time>
      </trkpt>
      <trkpt lat="44.15471" lon="5.01707">
        <ele>532.3</ele>
        <time>2019-01-17T14:35:43Z</time>
      </trkpt>
      <trkpt lat="44.15474" lon="5.01692">
        <ele>532.3</ele>
        <time>2019-01-17T14:36:00Z</time>
      </trkpt>
      <trkpt lat="44.15472" lon="5.01677">
        <ele>532.8</ele>
        <time>2019-01-17T14:36:19Z</time>
      </trkpt>
      <trkpt lat="44.15468" lon="5.01661">
        <ele>533.2</ele>
        <time>2019-01-17T14:36:35Z</time>
      </trkpt>
      <trkpt lat="44.15469" lon="5.01645">
        <ele>531.9</ele>
        <time>2019-01-17T14:36:49Z</time>
      </trkpt>
      <trkpt lat="44.15471" lon="5.01633">
        <ele>530.6</ele>
        <time>2019-01-17T14:37:05Z</time>
      </trkpt>
      <trkpt lat="44.15471" lon="5.01618">
        <ele>529.4</ele>
        <time>2019-01-17T14:37:19Z</time>
      </trkpt>
      <trkpt lat="44.15477" lon="5.01608">
        <ele>527.1</ele>
        <time>2019-01-17T14:37:49Z</time>
      </trkpt>
      <trkpt lat="44.15473" lon="5.01595">
        <ele>527.1</ele>
        <time>2019-01-17T14:38:00Z</time>
      </trkpt>
      <trkpt lat="44.15467" lon="5.01582">
        <ele>527.8</ele>
        <time>2019-01-17T14:38:13Z</time>
      </trkpt>
      <trkpt lat="44.15466" lon="5.01569">
        <ele>527</ele>
        <time>2019-01-17T14:38:27Z</time>
      </trkpt>
      <trkpt lat="44.15465" lon="5.01554">
        <ele>526.2</ele>
        <time>2019-01-17T14:38:42Z</time>
      </trkpt>
      <trkpt lat="44.15463" lon="5.01539">
        <ele>525.7</ele>
        <time>2019-01-17T14:38:56Z</time>
      </trkpt>
      <trkpt lat="44.15464" lon="5.01528">
        <ele>524.5</ele>
        <time>2019-01-17T14:39:45Z</time>
      </trkpt>
      <trkpt lat="44.15464" lon="5.01515">
        <ele>523.4</ele>
        <time>2019-01-17T14:40:02Z</time>
      </trkpt>
      <trkpt lat="44.15468" lon="5.01502">
        <ele>520.8</ele>
        <time>2019-01-17T14:40:27Z</time>
      </trkpt>
      <trkpt lat="44.15471" lon="5.01489">
        <ele>519.1</ele>
        <time>2019-01-17T14:40:41Z</time>
      </trkpt>
      <trkpt lat="44.15477" lon="5.01481">
        <ele>516.5</ele>
        <time>2019-01-17T14:41:08Z</time>
      </trkpt>
      <trkpt lat="44.15482" lon="5.01469">
        <ele>514.4</ele>
        <time>2019-01-17T14:41:24Z</time>
      </trkpt>
      <trkpt lat="44.15487" lon="5.01457">
        <ele>512.4</ele>
        <time>2019-01-17T14:41:45Z</time>
      </trkpt>
      <trkpt lat="44.15497" lon="5.01448">
        <ele>509</ele>
        <time>2019-01-17T14:42:13Z</time>
      </trkpt>
      <trkpt lat="44.15502" lon="5.01436">
        <ele>507.1</ele>
        <time>2019-01-17T14:42:30Z</time>
      </trkpt>
      <trkpt lat="44.15507" lon="5.01425">
        <ele>504.8</ele>
        <time>2019-01-17T14:43:06Z</time>
      </trkpt>
      <trkpt lat="44.15518" lon="5.01411">
        <ele>499.2</ele>
        <time>2019-01-17T14:43:56Z</time>
      </trkpt>
      <trkpt lat="44.15528" lon="5.014">
        <ele>493.6</ele>
        <time>2019-01-17T14:44:50Z</time>
      </trkpt>
      <trkpt lat="44.15533" lon="5.01389">
        <ele>490.3</ele>
        <time>2019-01-17T14:45:19Z</time>
      </trkpt>
      <trkpt lat="44.15538" lon="5.01378">
        <ele>487.3</ele>
        <time>2019-01-17T14:45:52Z</time>
      </trkpt>
      <trkpt lat="44.15542" lon="5.01368">
        <ele>485</ele>
        <time>2019-01-17T14:46:06Z</time>
      </trkpt>
      <trkpt lat="44.15544" lon="5.01352">
        <ele>483</ele>
        <time>2019-01-17T14:46:21Z</time>
      </trkpt>
      <trkpt lat="44.15543" lon="5.01336">
        <ele>481.9</ele>
        <time>2019-01-17T14:46:34Z</time>
      </trkpt>
      <trkpt lat="44.15547" lon="5.01322">
        <ele>479.1</ele>
        <time>2019-01-17T14:47:03Z</time>
      </trkpt>
      <trkpt lat="44.15552" lon="5.01306">
        <ele>475.9</ele>
        <time>2019-01-17T14:47:37Z</time>
      </trkpt>
      <trkpt lat="44.15562" lon="5.01296">
        <ele>473.1</ele>
        <time>2019-01-17T14:48:06Z</time>
      </trkpt>
      <trkpt lat="44.15571" lon="5.01283">
        <ele>470.7</ele>
        <time>2019-01-17T14:48:31Z</time>
      </trkpt>
      <trkpt lat="44.15578" lon="5.01269">
        <ele>469.2</ele>
        <time>2019-01-17T14:48:59Z</time>
      </trkpt>
      <trkpt lat="44.15589" lon="5.01248">
        <ele>465.7</ele>
        <time>2019-01-17T14:49:18Z</time>
      </trkpt>
      <trkpt lat="44.15599" lon="5.01238">
        <ele>460.8</ele>
        <time>2019-01-17T14:49:31Z</time>
      </trkpt>
      <trkpt lat="44.15621" lon="5.01221">
        <ele>452.5</ele>
        <time>2019-01-17T14:49:50Z</time>
      </trkpt>
      <trkpt lat="44.15636" lon="5.01211">
        <ele>448.1</ele>
        <time>2019-01-17T14:50:31Z</time>
      </trkpt>
      <trkpt lat="44.1565" lon="5.01208">
        <ele>444.8</ele>
        <time>2019-01-17T14:51:18Z</time>
      </trkpt>
      <trkpt lat="44.15658" lon="5.01197">
        <ele>443.2</ele>
        <time>2019-01-17T14:51:43Z</time>
      </trkpt>
      <trkpt lat="44.1567" lon="5.01179">
        <ele>442.1</ele>
        <time>2019-01-17T14:52:04Z</time>
      </trkpt>
      <trkpt lat="44.15683" lon="5.01167">
        <ele>442</ele>
        <time>2019-01-17T14:52:54Z</time>
      </trkpt>
      <trkpt lat="44.15694" lon="5.01161">
        <ele>440.8</ele>
        <time>2019-01-17T14:53:36Z</time>
      </trkpt>
      <trkpt lat="44.15703" lon="5.0115">
        <ele>439.4</ele>
        <time>2019-01-17T14:53:59Z</time>
      </trkpt>
      <trkpt lat="44.15715" lon="5.01149">
        <ele>438.9</ele>
        <time>2019-01-17T14:54:46Z</time>
      </trkpt>
      <trkpt lat="44.15717" lon="5.01141">
        <ele>438.4</ele>
      </trkpt>
      <trkpt lat="44.15717" lon="5.01141">
        <ele>438.4</ele>
      </trkpt>
      <trkpt lat="44.15717" lon="5.01131">
        <ele>437.8</ele>
      </trkpt>
      <trkpt lat="44.15717" lon="5.01131">
        <ele>437.8</ele>
      </trkpt>
      <trkpt lat="44.15717" lon="5.01125">
        <ele>437.4</ele>
      </trkpt>
      <trkpt lat="44.15717" lon="5.01125">
        <ele>437.4</ele>
      </trkpt>
      <trkpt lat="44.15721" lon="5.01131">
        <ele>437.8</ele>
      </trkpt>
      <trkpt lat="44.15721" lon="5.01131">
        <ele>437.8</ele>
      </trkpt>
      <trkpt lat="44.15725" lon="5.01138">
        <ele>438.2</ele>
      </trkpt>
      <trkpt lat="44.15725" lon="5.01138">
        <ele>438.2</ele>
      </trkpt>
      <trkpt lat="44.1573" lon="5.01139">
        <ele>438.2</ele>
      </trkpt>
      <trkpt lat="44.1573" lon="5.01139">
        <ele>438.2</ele>
      </trkpt>
      <trkpt lat="44.15738" lon="5.01138">
        <ele>438.1</ele>
      </trkpt>
      <trkpt lat="44.15738" lon="5.01138">
        <ele>438.1</ele>
      </trkpt>
      <trkpt lat="44.1575" lon="5.01137">
        <ele>438</ele>
      </trkpt>
      <trkpt lat="44.1575" lon="5.01137">
        <ele>438</ele>
      </trkpt>
      <trkpt lat="44.1576" lon="5.01135">
        <ele>439.3</ele>
      </trkpt>
      <trkpt lat="44.1576" lon="5.01135">
        <ele>439.3</ele>
      </trkpt>
      <trkpt lat="44.15768" lon="5.01132">
        <ele>440.2</ele>
      </trkpt>
      <trkpt lat="44.15768" lon="5.01132">
        <ele>440.2</ele>
      </trkpt>
      <trkpt lat="44.15777" lon="5.01131">
        <ele>441.3</ele>
      </trkpt>
      <trkpt lat="44.15777" lon="5.01131">
        <ele>441.3</ele>
      </trkpt>
      <trkpt lat="44.15784" lon="5.01131">
        <ele>442.2</ele>
      </trkpt>
      <trkpt lat="44.15784" lon="5.01131">
        <ele>442.2</ele>
      </trkpt>
      <trkpt lat="44.15792" lon="5.01128">
        <ele>443.1</ele>
      </trkpt>
      <trkpt lat="44.15792" lon="5.01128">
        <ele>443.1</ele>
      </trkpt>
      <trkpt lat="44.15801" lon="5.0112">
        <ele>444</ele>
      </trkpt>
      <trkpt lat="44.15801" lon="5.0112">
        <ele>444</ele>
      </trkpt>
      <trkpt lat="44.15802" lon="5.0111">
        <ele>443.8</ele>
      </trkpt>
      <trkpt lat="44.15802" lon="5.0111">
        <ele>443.8</ele>
      </trkpt>
      <trkpt lat="44.15804" lon="5.01102">
        <ele>443.8</ele>
      </trkpt>
      <trkpt lat="44.15804" lon="5.01102">
        <ele>443.8</ele>
      </trkpt>
      <trkpt lat="44.15804" lon="5.01096">
        <ele>443.6</ele>
      </trkpt>
      <trkpt lat="44.15804" lon="5.01096">
        <ele>443.6</ele>
      </trkpt>
      <trkpt lat="44.15804" lon="5.01091">
        <ele>443.4</ele>
      </trkpt>
      <trkpt lat="44.15804" lon="5.01091">
        <ele>443.4</ele>
      </trkpt>
      <trkpt lat="44.15806" lon="5.01087">
        <ele>443.5</ele>
      </trkpt>
      <trkpt lat="44.15806" lon="5.01087">
        <ele>443.5</ele>
      </trkpt>
      <trkpt lat="44.15807" lon="5.01084">
        <ele>443.5</ele>
      </trkpt>
      <trkpt lat="44.15807" lon="5.01084">
        <ele>443.5</ele>
      </trkpt>
      <trkpt lat="44.1581" lon="5.01081">
        <ele>443.1</ele>
      </trkpt>
      <trkpt lat="44.1581" lon="5.01081">
        <ele>443.1</ele>
      </trkpt>
      <trkpt lat="44.15815" lon="5.01089">
        <ele>444.5</ele>
      </trkpt>
      <trkpt lat="44.15815" lon="5.01089">
        <ele>444.5</ele>
      </trkpt>
      <trkpt lat="44.15813" lon="5.01079">
        <ele>442.7</ele>
      </trkpt>
      <trkpt lat="44.15813" lon="5.01079">
        <ele>442.7</ele>
      </trkpt>
      <trkpt lat="44.15808" lon="5.01079">
        <ele>442.3</ele>
      </trkpt>
      <trkpt lat="44.15808" lon="5.01079">
        <ele>442.3</ele>
      </trkpt>
      <trkpt lat="44.15804" lon="5.01085">
        <ele>443.2</ele>
      </trkpt>
      <trkpt lat="44.15804" lon="5.01085">
        <ele>443.2</ele>
      </trkpt>
      <trkpt lat="44.15803" lon="5.01091">
        <ele>443.3</ele>
      </trkpt>
      <trkpt lat="44.15803" lon="5.01091">
        <ele>443.3</ele>
      </trkpt>
      <trkpt lat="44.15801" lon="5.01096">
        <ele>443.3</ele>
      </trkpt>
      <trkpt lat="44.15801" lon="5.01096">
        <ele>443.3</ele>
      </trkpt>
      <trkpt lat="44.15799" lon="5.01091">
        <ele>442.9</ele>
      </trkpt>
      <trkpt lat="44.15799" lon="5.01091">
        <ele>442.9</ele>
      </trkpt>
      <trkpt lat="44.15797" lon="5.01088">
        <ele>442.6</ele>
      </trkpt>
      <trkpt lat="44.15797" lon="5.01088">
        <ele>442.6</ele>
      </trkpt>
      <trkpt lat="44.15795" lon="5.01082">
        <ele>441.9</ele>
      </trkpt>
      <trkpt lat="44.15795" lon="5.01082">
        <ele>441.9</ele>
      </trkpt>
      <trkpt lat="44.15797" lon="5.01071">
        <ele>438.9</ele>
      </trkpt>
      <trkpt lat="44.15801" lon="5.01067">
        <ele>438</ele>
      </trkpt>
      <trkpt lat="44.15801" lon="5.01067">
        <ele>438</ele>
      </trkpt>
      <trkpt lat="44.15804" lon="5.01066">
        <ele>438</ele>
      </trkpt>
      <trkpt lat="44.15804" lon="5.01066">
        <ele>438</ele>
      </trkpt>
      <trkpt lat="44.15812" lon="5.01065">
        <ele>438.4</ele>
      </trkpt>
      <trkpt lat="44.15812" lon="5.01065">
        <ele>438.4</ele>
      </trkpt>
      <trkpt lat="44.1582" lon="5.01074">
        <ele>441.9</ele>
      </trkpt>
      <trkpt lat="44.1582" lon="5.01074">
        <ele>441.9</ele>
      </trkpt>
      <trkpt lat="44.15829" lon="5.01082">
        <ele>445.2</ele>
      </trkpt>
      <trkpt lat="44.15829" lon="5.01082">
        <ele>445.2</ele>
      </trkpt>
      <trkpt lat="44.15839" lon="5.01089">
        <ele>444.3</ele>
      </trkpt>
      <trkpt lat="44.15839" lon="5.01089">
        <ele>444.3</ele>
      </trkpt>
      <trkpt lat="44.1585" lon="5.01094">
        <ele>440.8</ele>
      </trkpt>
      <trkpt lat="44.1585" lon="5.01094">
        <ele>440.8</ele>
      </trkpt>
      <trkpt lat="44.15858" lon="5.01098">
        <ele>438.3</ele>
      </trkpt>
      <trkpt lat="44.15858" lon="5.01098">
        <ele>438.3</ele>
      </trkpt>
      <trkpt lat="44.15868" lon="5.01098">
        <ele>434.9</ele>
      </trkpt>
      <trkpt lat="44.15868" lon="5.01098">
        <ele>434.9</ele>
      </trkpt>
      <trkpt lat="44.15877" lon="5.01096">
        <ele>431.7</ele>
      </trkpt>
      <trkpt lat="44.15877" lon="5.01096">
        <ele>431.7</ele>
      </trkpt>
      <trkpt lat="44.15882" lon="5.01093">
        <ele>429.7</ele>
      </trkpt>
      <trkpt lat="44.15882" lon="5.01093">
        <ele>429.7</ele>
      </trkpt>
      <trkpt lat="44.15886" lon="5.01084">
        <ele>427.7</ele>
      </trkpt>
      <trkpt lat="44.15886" lon="5.01084">
        <ele>427.7</ele>
      </trkpt>
      <trkpt lat="44.15877" lon="5.01073">
        <ele>427.9</ele>
      </trkpt>
      <trkpt lat="44.15877" lon="5.01073">
        <ele>427.9</ele>
      </trkpt>
      <trkpt lat="44.15875" lon="5.01062">
        <ele>425.5</ele>
      </trkpt>
      <trkpt lat="44.15875" lon="5.01062">
        <ele>425.5</ele>
      </trkpt>
      <trkpt lat="44.1587" lon="5.0105">
        <ele>423.7</ele>
      </trkpt>
      <trkpt lat="44.1587" lon="5.0105">
        <ele>423.7</ele>
      </trkpt>
      <trkpt lat="44.15864" lon="5.01037">
        <ele>421.9</ele>
      </trkpt>
      <trkpt lat="44.15864" lon="5.01037">
        <ele>421.9</ele>
      </trkpt>
      <trkpt lat="44.15855" lon="5.01014">
        <ele>417.9</ele>
      </trkpt>
      <trkpt lat="44.15855" lon="5.01014">
        <ele>417.9</ele>
      </trkpt>
      <trkpt lat="44.15849" lon="5.01008">
        <ele>417.9</ele>
      </trkpt>
      <trkpt lat="44.15849" lon="5.01008">
        <ele>417.9</ele>
      </trkpt>
      <trkpt lat="44.15837" lon="5.00991">
        <ele>416</ele>
      </trkpt>
      <trkpt lat="44.15837" lon="5.00991">
        <ele>416</ele>
      </trkpt>
      <trkpt lat="44.1583" lon="5.00984">
        <ele>414.6</ele>
      </trkpt>
      <trkpt lat="44.1583" lon="5.00984">
        <ele>414.6</ele>
      </trkpt>
      <trkpt lat="44.15821" lon="5.00977">
        <ele>411.7</ele>
      </trkpt>
      <trkpt lat="44.15821" lon="5.00977">
        <ele>411.7</ele>
      </trkpt>
      <trkpt lat="44.15813" lon="5.0097">
        <ele>408.9</ele>
      </trkpt>
      <trkpt lat="44.15813" lon="5.0097">
        <ele>408.9</ele>
      </trkpt>
      <trkpt lat="44.15804" lon="5.00965">
        <ele>406.6</ele>
      </trkpt>
      <trkpt lat="44.15804" lon="5.00965">
        <ele>406.6</ele>
      </trkpt>
      <trkpt lat="44.15797" lon="5.0096">
        <ele>404.4</ele>
      </trkpt>
      <trkpt lat="44.15797" lon="5.0096">
        <ele>404.4</ele>
      </trkpt>
      <trkpt lat="44.1579" lon="5.00956">
        <ele>402.6</ele>
      </trkpt>
      <trkpt lat="44.1579" lon="5.00956">
        <ele>402.6</ele>
      </trkpt>
      <trkpt lat="44.15778" lon="5.0095">
        <ele>399.7</ele>
      </trkpt>
      <trkpt lat="44.15778" lon="5.0095">
        <ele>399.7</ele>
      </trkpt>
      <trkpt lat="44.15772" lon="5.00949">
        <ele>398.9</ele>
      </trkpt>
      <trkpt lat="44.15772" lon="5.00949">
        <ele>398.9</ele>
      </trkpt>
      <trkpt lat="44.15776" lon="5.00946">
        <ele>398.2</ele>
      </trkpt>
      <trkpt lat="44.15776" lon="5.00946">
        <ele>398.2</ele>
      </trkpt>
      <trkpt lat="44.1578" lon="5.00941">
        <ele>396.8</ele>
      </trkpt>
      <trkpt lat="44.1578" lon="5.00941">
        <ele>396.8</ele>
      </trkpt>
      <trkpt lat="44.15785" lon="5.00929">
        <ele>393.1</ele>
      </trkpt>
      <trkpt lat="44.15785" lon="5.00929">
        <ele>393.1</ele>
      </trkpt>
      <trkpt lat="44.15789" lon="5.00914">
        <ele>388.5</ele>
      </trkpt>
      <trkpt lat="44.15789" lon="5.00914">
        <ele>388.5</ele>
      </trkpt>
      <trkpt lat="44.15795" lon="5.00899">
        <ele>384.5</ele>
      </trkpt>
      <trkpt lat="44.15795" lon="5.00899">
        <ele>384.5</ele>
      </trkpt>
      <trkpt lat="44.15801" lon="5.00888">
        <ele>381.6</ele>
      </trkpt>
      <trkpt lat="44.15801" lon="5.00888">
        <ele>381.6</ele>
      </trkpt>
      <trkpt lat="44.15806" lon="5.00884">
        <ele>380.6</ele>
      </trkpt>
      <trkpt lat="44.15806" lon="5.00884">
        <ele>380.6</ele>
      </trkpt>
      <trkpt lat="44.15812" lon="5.00883">
        <ele>380.6</ele>
      </trkpt>
      <trkpt lat="44.15812" lon="5.00883">
        <ele>380.6</ele>
      </trkpt>
      <trkpt lat="44.15821" lon="5.00883">
        <ele>381.1</ele>
      </trkpt>
      <trkpt lat="44.15821" lon="5.00883">
        <ele>381.1</ele>
      </trkpt>
      <trkpt lat="44.15826" lon="5.00877">
        <ele>379.3</ele>
      </trkpt>
      <trkpt lat="44.15826" lon="5.00877">
        <ele>379.3</ele>
      </trkpt>
      <trkpt lat="44.15828" lon="5.00875">
        <ele>378.8</ele>
      </trkpt>
      <trkpt lat="44.15828" lon="5.00875">
        <ele>378.8</ele>
      </trkpt>
      <trkpt lat="44.15849" lon="5.00875">
        <ele>376.1</ele>
      </trkpt>
      <trkpt lat="44.15849" lon="5.00875">
        <ele>376.1</ele>
      </trkpt>
      <trkpt lat="44.15867" lon="5.00883">
        <ele>375.1</ele>
      </trkpt>
      <trkpt lat="44.15867" lon="5.00883">
        <ele>375.1</ele>
      </trkpt>
      <trkpt lat="44.15878" lon="5.00883">
        <ele>372.9</ele>
      </trkpt>
      <trkpt lat="44.15878" lon="5.00883">
        <ele>372.9</ele>
      </trkpt>
      <trkpt lat="44.15889" lon="5.00873">
        <ele>368.1</ele>
      </trkpt>
      <trkpt lat="44.15889" lon="5.00873">
        <ele>368.1</ele>
      </trkpt>
      <trkpt lat="44.15897" lon="5.00867">
        <ele>365.1</ele>
      </trkpt>
      <trkpt lat="44.15897" lon="5.00867">
        <ele>365.1</ele>
      </trkpt>
      <trkpt lat="44.1591" lon="5.00881">
        <ele>366.2</ele>
      </trkpt>
      <trkpt lat="44.1591" lon="5.00881">
        <ele>366.2</ele>
      </trkpt>
      <trkpt lat="44.1592" lon="5.00898">
        <ele>367.5</ele>
      </trkpt>
      <trkpt lat="44.1592" lon="5.00898">
        <ele>367.5</ele>
      </trkpt>
      <trkpt lat="44.15933" lon="5.00921">
        <ele>368</ele>
      </trkpt>
      <trkpt lat="44.15933" lon="5.00921">
        <ele>368</ele>
      </trkpt>
      <trkpt lat="44.15937" lon="5.0094">
        <ele>371.3</ele>
      </trkpt>
      <trkpt lat="44.15937" lon="5.0094">
        <ele>371.3</ele>
      </trkpt>
      <trkpt lat="44.15943" lon="5.00944">
        <ele>369.8</ele>
      </trkpt>
      <trkpt lat="44.15943" lon="5.00944">
        <ele>369.8</ele>
      </trkpt>
      <trkpt lat="44.15947" lon="5.0093">
        <ele>364.9</ele>
      </trkpt>
      <trkpt lat="44.15947" lon="5.0093">
        <ele>364.9</ele>
      </trkpt>
      <trkpt lat="44.15944" lon="5.00909">
        <ele>361.2</ele>
      </trkpt>
      <trkpt lat="44.15944" lon="5.00909">
        <ele>361.2</ele>
      </trkpt>
      <trkpt lat="44.15928" lon="5.0085">
        <ele>354.1</ele>
      </trkpt>
      <trkpt lat="44.15928" lon="5.0085">
        <ele>354.1</ele>
      </trkpt>
      <trkpt lat="44.15927" lon="5.00829">
        <ele>350.1</ele>
      </trkpt>
      <trkpt lat="44.15927" lon="5.00829">
        <ele>350.1</ele>
      </trkpt>
      <trkpt lat="44.1593" lon="5.00807">
        <ele>345.6</ele>
      </trkpt>
      <trkpt lat="44.1593" lon="5.00807">
        <ele>345.6</ele>
      </trkpt>
      <trkpt lat="44.15937" lon="5.00787">
        <ele>340.2</ele>
      </trkpt>
      <trkpt lat="44.15937" lon="5.00787">
        <ele>340.2</ele>
      </trkpt>
      <trkpt lat="44.15939" lon="5.00769">
        <ele>336.6</ele>
      </trkpt>
      <trkpt lat="44.15939" lon="5.00769">
        <ele>336.6</ele>
      </trkpt>
      <trkpt lat="44.15938" lon="5.00742">
        <ele>332.9</ele>
      </trkpt>
      <trkpt lat="44.15938" lon="5.00742">
        <ele>332.9</ele>
      </trkpt>
      <trkpt lat="44.15942" lon="5.00709">
        <ele>328</ele>
      </trkpt>
      <trkpt lat="44.15942" lon="5.00709">
        <ele>328</ele>
      </trkpt>
      <trkpt lat="44.15947" lon="5.00676">
        <ele>323</ele>
      </trkpt>
      <trkpt lat="44.15947" lon="5.00676">
        <ele>323</ele>
      </trkpt>
      <trkpt lat="44.15955" lon="5.00643">
        <ele>317.6</ele>
      </trkpt>
      <trkpt lat="44.15955" lon="5.00643">
        <ele>317.6</ele>
      </trkpt>
      <trkpt lat="44.15956" lon="5.00616">
        <ele>314.7</ele>
      </trkpt>
      <trkpt lat="44.15956" lon="5.00616">
        <ele>314.7</ele>
      </trkpt>
      <trkpt lat="44.15951" lon="5.00597">
        <ele>314</ele>
      </trkpt>
      <trkpt lat="44.15951" lon="5.00597">
        <ele>314</ele>
      </trkpt>
      <trkpt lat="44.15953" lon="5.00556">
        <ele>308.9</ele>
      </trkpt>
      <trkpt lat="44.15953" lon="5.00556">
        <ele>308.9</ele>
      </trkpt>
      <trkpt lat="44.1595" lon="5.00528">
        <ele>306.3</ele>
      </trkpt>
      <trkpt lat="44.1595" lon="5.00528">
        <ele>306.3</ele>
      </trkpt>
      <trkpt lat="44.15951" lon="5.00488">
        <ele>301.9</ele>
      </trkpt>
      <trkpt lat="44.15951" lon="5.00488">
        <ele>301.9</ele>
      </trkpt>
      <trkpt lat="44.1595" lon="5.00457">
        <ele>300</ele>
      </trkpt>
      <trkpt lat="44.1595" lon="5.00457">
        <ele>300</ele>
      </trkpt>
      <trkpt lat="44.15966" lon="5.00434">
        <ele>295.8</ele>
      </trkpt>
      <trkpt lat="44.15966" lon="5.00434">
        <ele>295.8</ele>
      </trkpt>
      <trkpt lat="44.15981" lon="5.00398">
        <ele>292.2</ele>
      </trkpt>
      <trkpt lat="44.15981" lon="5.00398">
        <ele>292.2</ele>
      </trkpt>
      <trkpt lat="44.15999" lon="5.00362">
        <ele>289.4</ele>
      </trkpt>
      <trkpt lat="44.15999" lon="5.00362">
        <ele>289.4</ele>
      </trkpt>
      <trkpt lat="44.16023" lon="5.00343">
        <ele>287.3</ele>
      </trkpt>
      <trkpt lat="44.16023" lon="5.00343">
        <ele>287.3</ele>
      </trkpt>
      <trkpt lat="44.1604" lon="5.00326">
        <ele>286.9</ele>
      </trkpt>
      <trkpt lat="44.1604" lon="5.00326">
        <ele>286.9</ele>
      </trkpt>
      <trkpt lat="44.1606" lon="5.00339">
        <ele>284.7</ele>
      </trkpt>
      <trkpt lat="44.1606" lon="5.00339">
        <ele>284.7</ele>
      </trkpt>
      <trkpt lat="44.16099" lon="5.00392">
        <ele>274.6</ele>
      </trkpt>
      <trkpt lat="44.16099" lon="5.00392">
        <ele>274.6</ele>
      </trkpt>
      <trkpt lat="44.16134" lon="5.00424">
        <ele>268.7</ele>
      </trkpt>
      <trkpt lat="44.16134" lon="5.00424">
        <ele>268.7</ele>
      </trkpt>
      <trkpt lat="44.16178" lon="5.00457">
        <ele>262.7</ele>
      </trkpt>
      <trkpt lat="44.16178" lon="5.00457">
        <ele>262.7</ele>
      </trkpt>
      <trkpt lat="44.162" lon="5.00483">
        <ele>258.9</ele>
      </trkpt>
      <trkpt lat="44.162" lon="5.00483">
        <ele>258.9</ele>
      </trkpt>
      <trkpt lat="44.16221" lon="5.00492">
        <ele>257.7</ele>
      </trkpt>
      <trkpt lat="44.16221" lon="5.00492">
        <ele>257.7</ele>
      </trkpt>
      <trkpt lat="44.16241" lon="5.00478">
        <ele>257.2</ele>
      </trkpt>
      <trkpt lat="44.16241" lon="5.00478">
        <ele>257.2</ele>
      </trkpt>
      <trkpt lat="44.16263" lon="5.00459">
        <ele>255</ele>
      </trkpt>
      <trkpt lat="44.16263" lon="5.00459">
        <ele>255</ele>
      </trkpt>
      <trkpt lat="44.16282" lon="5.00442">
        <ele>252</ele>
      </trkpt>
      <trkpt lat="44.16282" lon="5.00442">
        <ele>252</ele>
      </trkpt>
      <trkpt lat="44.16305" lon="5.00428">
        <ele>247.7</ele>
      </trkpt>
      <trkpt lat="44.16305" lon="5.00428">
        <ele>247.7</ele>
      </trkpt>
      <trkpt lat="44.16318" lon="5.00416">
        <ele>244.5</ele>
      </trkpt>
    </trkseg>
  </trk>
</gpx>